<?xml version="1.0"?>
<gpx xmlns="http://www.topografix.com/GPX/1/1" xmlns:xsi="http://www.w3.org/2001/XMLSchema-instance" xmlns:wptx1="http://www.garmin.com/xmlschemas/WaypointExtension/v1" xmlns:gpxtrx="http://www.garmin.com/xmlschemas/GpxExtensions/v3" xmlns:gpxtpx="http://www.garmin.com/xmlschemas/TrackPointExtension/v1" xmlns:gpxx="http://www.garmin.com/xmlschemas/GpxExtensions/v3" xmlns:trp="http://www.garmin.com/xmlschemas/TripExtensions/v1" xmlns:adv="http://www.garmin.com/xmlschemas/AdventuresExtensions/v1" xmlns:prs="http://www.garmin.com/xmlschemas/PressureExtension/v1" xmlns:tmd="http://www.garmin.com/xmlschemas/TripMetaDataExtensions/v1" xmlns:vptm="http://www.garmin.com/xmlschemas/ViaPointTransportationModeExtensions/v1" xmlns:ctx="http://www.garmin.com/xmlschemas/CreationTimeExtension/v1" xmlns:gpxacc="http://www.garmin.com/xmlschemas/AccelerationExtension/v1" xmlns:gpxpx="http://www.garmin.com/xmlschemas/PowerExtension/v1" xmlns:vidx1="http://www.garmin.com/xmlschemas/VideoExtension/v1" creator="Garmin Desktop App" version="1.1" xsi:schemaLocation="http://www.topografix.com/GPX/1/1 http://www.topografix.com/GPX/1/1/gpx.xsd http://www.garmin.com/xmlschemas/WaypointExtension/v1 http://www8.garmin.com/xmlschemas/WaypointExtensionv1.xsd http://www.garmin.com/xmlschemas/TrackPointExtension/v1 http://www.garmin.com/xmlschemas/TrackPointExtensionv1.xsd http://www.garmin.com/xmlschemas/GpxExtensions/v3 http://www8.garmin.com/xmlschemas/GpxExtensionsv3.xsd http://www.garmin.com/xmlschemas/ActivityExtension/v1 http://www8.garmin.com/xmlschemas/ActivityExtensionv1.xsd http://www.garmin.com/xmlschemas/AdventuresExtensions/v1 http://www8.garmin.com/xmlschemas/AdventuresExtensionv1.xsd http://www.garmin.com/xmlschemas/PressureExtension/v1 http://www.garmin.com/xmlschemas/PressureExtensionv1.xsd http://www.garmin.com/xmlschemas/TripExtensions/v1 http://www.garmin.com/xmlschemas/TripExtensionsv1.xsd http://www.garmin.com/xmlschemas/TripMetaDataExtensions/v1 http://www.garmin.com/xmlschemas/TripMetaDataExtensionsv1.xsd http://www.garmin.com/xmlschemas/ViaPointTransportationModeExtensions/v1 http://www.garmin.com/xmlschemas/ViaPointTransportationModeExtensionsv1.xsd http://www.garmin.com/xmlschemas/CreationTimeExtension/v1 http://www.garmin.com/xmlschemas/CreationTimeExtensionsv1.xsd http://www.garmin.com/xmlschemas/AccelerationExtension/v1 http://www.garmin.com/xmlschemas/AccelerationExtensionv1.xsd http://www.garmin.com/xmlschemas/PowerExtension/v1 http://www.garmin.com/xmlschemas/PowerExtensionv1.xsd http://www.garmin.com/xmlschemas/VideoExtension/v1 http://www.garmin.com/xmlschemas/VideoExtensionv1.xsd">
  <metadata>
    <link href="http://www.garmin.com">
      <text>Garmin International</text>
    </link>
    <time>2023-08-07T09:43:51Z</time>
    <bounds maxlat="43.256200030446053" maxlon="12.203850019723177" minlat="42.99558000639081" minlon="10.856000008061528"/>
  </metadata>
  <trk>
    <name>Track1706_bea</name>
    <extensions>
      <gpxx:TrackExtension>
        <gpxx:DisplayColor>Red</gpxx:DisplayColor>
      </gpxx:TrackExtension>
    </extensions>
    <trkseg>
      <trkpt lat="43.145780023187399" lon="10.856599984690547">
        <ele>498</ele>
        <time>2006-06-17T07:37:11Z</time>
      </trkpt>
      <trkpt lat="43.147149961441755" lon="10.856000008061528">
        <ele>486</ele>
        <time>2006-06-17T07:37:34Z</time>
      </trkpt>
      <trkpt lat="43.148020002990961" lon="10.857099965214729">
        <ele>485</ele>
        <time>2006-06-17T07:37:51Z</time>
      </trkpt>
      <trkpt lat="43.145799972116947" lon="10.858750026673079">
        <ele>495</ele>
        <time>2006-06-17T07:38:17Z</time>
      </trkpt>
      <trkpt lat="43.144770003855228" lon="10.860669985413551">
        <ele>505</ele>
        <time>2006-06-17T07:38:38Z</time>
      </trkpt>
      <trkpt lat="43.14427999779582" lon="10.860829995945096">
        <ele>523</ele>
        <time>2006-06-17T08:13:52Z</time>
      </trkpt>
      <trkpt lat="43.144270023331046" lon="10.865080039948225">
        <ele>548</ele>
        <time>2006-06-17T08:14:34Z</time>
      </trkpt>
      <trkpt lat="43.145629987120628" lon="10.868930015712976">
        <ele>567</ele>
        <time>2006-06-17T08:14:55Z</time>
      </trkpt>
      <trkpt lat="43.145520016551018" lon="10.8714500349015">
        <ele>583</ele>
        <time>2006-06-17T08:15:11Z</time>
      </trkpt>
      <trkpt lat="43.1438700389117" lon="10.875000022351742">
        <ele>606</ele>
        <time>2006-06-17T08:15:37Z</time>
      </trkpt>
      <trkpt lat="43.145380038768053" lon="10.880870036780834">
        <ele>617</ele>
        <time>2006-06-17T08:16:05Z</time>
      </trkpt>
      <trkpt lat="43.144649975001812" lon="10.884220032021403">
        <ele>620</ele>
        <time>2006-06-17T08:16:23Z</time>
      </trkpt>
      <trkpt lat="43.145329998806119" lon="10.887380009517074">
        <ele>617</ele>
        <time>2006-06-17T08:16:42Z</time>
      </trkpt>
      <trkpt lat="43.145099999383092" lon="10.892030037939548">
        <ele>611</ele>
        <time>2006-06-17T08:18:20Z</time>
      </trkpt>
      <trkpt lat="43.143970035016537" lon="10.893729971721768">
        <ele>604</ele>
        <time>2006-06-17T08:18:33Z</time>
      </trkpt>
      <trkpt lat="43.144679982215166" lon="10.896070031449199">
        <ele>591</ele>
        <time>2006-06-17T08:18:52Z</time>
      </trkpt>
      <trkpt lat="43.144819959998131" lon="10.898749977350235">
        <ele>586</ele>
        <time>2006-06-17T08:19:09Z</time>
      </trkpt>
      <trkpt lat="43.143520010635257" lon="10.901669980958104">
        <ele>583</ele>
        <time>2006-06-17T08:19:26Z</time>
      </trkpt>
      <trkpt lat="43.141880007460713" lon="10.902250008657575">
        <ele>577</ele>
        <time>2006-06-17T08:19:38Z</time>
      </trkpt>
      <trkpt lat="43.14021997153759" lon="10.90556999668479">
        <ele>569</ele>
        <time>2006-06-17T08:20:02Z</time>
      </trkpt>
      <trkpt lat="43.136869976297021" lon="10.905630011111498">
        <ele>572</ele>
        <time>2006-06-17T08:20:21Z</time>
      </trkpt>
      <trkpt lat="43.135350001975894" lon="10.907449973747134">
        <ele>563</ele>
        <time>2006-06-17T08:20:36Z</time>
      </trkpt>
      <trkpt lat="43.133570021018386" lon="10.907730013132095">
        <ele>556</ele>
        <time>2006-06-17T08:20:49Z</time>
      </trkpt>
      <trkpt lat="43.130869958549738" lon="10.910429991781712">
        <ele>568</ele>
        <time>2006-06-17T08:21:12Z</time>
      </trkpt>
      <trkpt lat="43.131679985672235" lon="10.912199998274446">
        <ele>582</ele>
        <time>2006-06-17T08:21:27Z</time>
      </trkpt>
      <trkpt lat="43.13039998523891" lon="10.914269993081689">
        <ele>606</ele>
        <time>2006-06-17T08:21:49Z</time>
      </trkpt>
      <trkpt lat="43.129370016977191" lon="10.917220003902912">
        <ele>615</ele>
        <time>2006-06-17T08:22:07Z</time>
      </trkpt>
      <trkpt lat="43.126870030537248" lon="10.918530011549592">
        <ele>629</ele>
        <time>2006-06-17T08:22:23Z</time>
      </trkpt>
      <trkpt lat="43.126369966194034" lon="10.922900000587106">
        <ele>639</ele>
        <time>2006-06-17T08:22:49Z</time>
      </trkpt>
      <trkpt lat="43.125130031257868" lon="10.923020029440522">
        <ele>623</ele>
        <time>2006-06-17T08:23:06Z</time>
      </trkpt>
      <trkpt lat="43.121969969943166" lon="10.925729982554913">
        <ele>591</ele>
        <time>2006-06-17T08:23:36Z</time>
      </trkpt>
      <trkpt lat="43.121330011636019" lon="10.927869966253638">
        <ele>580</ele>
        <time>2006-06-17T08:23:48Z</time>
      </trkpt>
      <trkpt lat="43.11985001899302" lon="10.929680038243532">
        <ele>566</ele>
        <time>2006-06-17T08:24:04Z</time>
      </trkpt>
      <trkpt lat="43.118050005286932" lon="10.929869972169399">
        <ele>552</ele>
        <time>2006-06-17T08:24:23Z</time>
      </trkpt>
      <trkpt lat="43.115069987252355" lon="10.929369991645217">
        <ele>551</ele>
        <time>2006-06-17T08:24:42Z</time>
      </trkpt>
      <trkpt lat="43.113250024616718" lon="10.930120004341006">
        <ele>541</ele>
        <time>2006-06-17T08:24:58Z</time>
      </trkpt>
      <trkpt lat="43.109629964455962" lon="10.927820010110736">
        <ele>470</ele>
        <time>2006-06-17T08:25:22Z</time>
      </trkpt>
      <trkpt lat="43.108230018988252" lon="10.925669968128204">
        <ele>491</ele>
        <time>2006-06-17T08:25:35Z</time>
      </trkpt>
      <trkpt lat="43.106000013649464" lon="10.924449982121587">
        <ele>485</ele>
        <time>2006-06-17T08:25:53Z</time>
      </trkpt>
      <trkpt lat="43.10423000715673" lon="10.923550017178059">
        <ele>467</ele>
        <time>2006-06-17T08:26:14Z</time>
      </trkpt>
      <trkpt lat="43.102179961279035" lon="10.924949962645769">
        <ele>458</ele>
        <time>2006-06-17T08:26:32Z</time>
      </trkpt>
      <trkpt lat="43.100829971954226" lon="10.927869966253638">
        <ele>458</ele>
        <time>2006-06-17T08:26:54Z</time>
      </trkpt>
      <trkpt lat="43.09553001075983" lon="10.929729994386435">
        <ele>414</ele>
        <time>2006-06-17T08:27:23Z</time>
      </trkpt>
      <trkpt lat="43.091829987242818" lon="10.929469987750053">
        <ele>404</ele>
        <time>2006-06-17T08:27:42Z</time>
      </trkpt>
      <trkpt lat="43.089220030233264" lon="10.926700020208955">
        <ele>386</ele>
        <time>2006-06-17T08:27:59Z</time>
      </trkpt>
      <trkpt lat="43.086619963869452" lon="10.925799971446395">
        <ele>374</ele>
        <time>2006-06-17T08:28:15Z</time>
      </trkpt>
      <trkpt lat="43.085069982334971" lon="10.926249995827675">
        <ele>385</ele>
        <time>2006-06-17T08:28:46Z</time>
      </trkpt>
      <trkpt lat="43.08515002951026" lon="10.929550034925342">
        <ele>406</ele>
        <time>2006-06-17T08:29:09Z</time>
      </trkpt>
      <trkpt lat="43.086130041629076" lon="10.931650036945939">
        <ele>424</ele>
        <time>2006-06-17T08:29:31Z</time>
      </trkpt>
      <trkpt lat="43.087520012632012" lon="10.932280020788312">
        <ele>432</ele>
        <time>2006-06-17T08:29:43Z</time>
      </trkpt>
      <trkpt lat="43.086049994453788" lon="10.933569995686412">
        <ele>449</ele>
        <time>2006-06-17T08:30:05Z</time>
      </trkpt>
      <trkpt lat="43.087150035426021" lon="10.935030039399862">
        <ele>455</ele>
        <time>2006-06-17T08:30:40Z</time>
      </trkpt>
      <trkpt lat="43.089450029656291" lon="10.939050000160933">
        <ele>459</ele>
        <time>2006-06-17T08:31:13Z</time>
      </trkpt>
      <trkpt lat="43.089869963005185" lon="10.940950009971857">
        <ele>459</ele>
        <time>2006-06-17T08:31:27Z</time>
      </trkpt>
      <trkpt lat="43.090700022876263" lon="10.945670027285814">
        <ele>477</ele>
        <time>2006-06-17T08:31:53Z</time>
      </trkpt>
      <trkpt lat="43.091070000082254" lon="10.948279984295368">
        <ele>487</ele>
        <time>2006-06-17T08:32:09Z</time>
      </trkpt>
      <trkpt lat="43.089150041341782" lon="10.950649967417121">
        <ele>509</ele>
        <time>2006-06-17T08:32:27Z</time>
      </trkpt>
      <trkpt lat="43.087280038744211" lon="10.954600023105741">
        <ele>526</ele>
        <time>2006-06-17T08:32:49Z</time>
      </trkpt>
      <trkpt lat="43.085980005562305" lon="10.956570021808147">
        <ele>538</ele>
        <time>2006-06-17T08:33:08Z</time>
      </trkpt>
      <trkpt lat="43.086270019412041" lon="10.959729999303818">
        <ele>556</ele>
        <time>2006-06-17T08:33:30Z</time>
      </trkpt>
      <trkpt lat="43.085099989548326" lon="10.961869983002543">
        <ele>554</ele>
        <time>2006-06-17T08:33:45Z</time>
      </trkpt>
      <trkpt lat="43.084879964590073" lon="10.964599968865514">
        <ele>545</ele>
        <time>2006-06-17T08:34:04Z</time>
      </trkpt>
      <trkpt lat="43.084800001233816" lon="10.966450022533536">
        <ele>544</ele>
        <time>2006-06-17T08:34:18Z</time>
      </trkpt>
      <trkpt lat="43.084149984642863" lon="10.968049960210919">
        <ele>538</ele>
        <time>2006-06-17T08:34:37Z</time>
      </trkpt>
      <trkpt lat="43.084049988538027" lon="10.97036998718977">
        <ele>556</ele>
        <time>2006-06-17T08:34:54Z</time>
      </trkpt>
      <trkpt lat="43.085919991135597" lon="10.972230015322566">
        <ele>556</ele>
        <time>2006-06-17T08:35:13Z</time>
      </trkpt>
      <trkpt lat="43.084149984642863" lon="10.97354999743402">
        <ele>539</ele>
        <time>2006-06-17T08:35:33Z</time>
      </trkpt>
      <trkpt lat="43.082620035856962" lon="10.975700039416552">
        <ele>535</ele>
        <time>2006-06-17T08:35:52Z</time>
      </trkpt>
      <trkpt lat="43.080420037731528" lon="10.983999967575073">
        <ele>530</ele>
        <time>2006-06-17T08:36:25Z</time>
      </trkpt>
      <trkpt lat="43.080049976706505" lon="10.984670016914606">
        <ele>527</ele>
        <time>2006-06-17T08:38:29Z</time>
      </trkpt>
      <trkpt lat="43.078950019553304" lon="10.986770018935204">
        <ele>523</ele>
        <time>2006-06-17T08:38:49Z</time>
      </trkpt>
      <trkpt lat="43.077129973098636" lon="10.988069968298078">
        <ele>517</ele>
        <time>2006-06-17T08:39:11Z</time>
      </trkpt>
      <trkpt lat="43.075930019840598" lon="10.99080003798008">
        <ele>509</ele>
        <time>2006-06-17T08:39:29Z</time>
      </trkpt>
      <trkpt lat="43.076250040903687" lon="10.99481999874115">
        <ele>496</ele>
        <time>2006-06-17T08:39:48Z</time>
      </trkpt>
      <trkpt lat="43.075379999354482" lon="10.99754998460412">
        <ele>487</ele>
        <time>2006-06-17T08:40:11Z</time>
      </trkpt>
      <trkpt lat="43.076620018109679" lon="11.003080029040575">
        <ele>472</ele>
        <time>2006-06-17T08:40:40Z</time>
      </trkpt>
      <trkpt lat="43.078669980168343" lon="11.018150020390749">
        <ele>464</ele>
        <time>2006-06-17T08:41:42Z</time>
      </trkpt>
      <trkpt lat="43.078750027343631" lon="11.018399968743324">
        <ele>496</ele>
        <time>2006-06-17T09:43:30Z</time>
      </trkpt>
      <trkpt lat="43.076550029218197" lon="11.017430014908314">
        <ele>512</ele>
        <time>2006-06-17T09:48:46Z</time>
      </trkpt>
      <trkpt lat="43.072350025177002" lon="11.016819979995489">
        <ele>516</ele>
        <time>2006-06-17T09:49:13Z</time>
      </trkpt>
      <trkpt lat="43.069730009883642" lon="11.018180027604103">
        <ele>518</ele>
        <time>2006-06-17T09:49:31Z</time>
      </trkpt>
      <trkpt lat="43.062129970639944" lon="11.017799992114305">
        <ele>525</ele>
        <time>2006-06-17T09:50:20Z</time>
      </trkpt>
      <trkpt lat="43.05949998088181" lon="11.020120019093156">
        <ele>526</ele>
        <time>2006-06-17T09:50:38Z</time>
      </trkpt>
      <trkpt lat="43.057719999924302" lon="11.023849966004491">
        <ele>510</ele>
        <time>2006-06-17T09:50:55Z</time>
      </trkpt>
      <trkpt lat="43.057480026036501" lon="11.027730032801628">
        <ele>498</ele>
        <time>2006-06-17T09:51:13Z</time>
      </trkpt>
      <trkpt lat="43.054479975253344" lon="11.032200017943978">
        <ele>493</ele>
        <time>2006-06-17T09:51:37Z</time>
      </trkpt>
      <trkpt lat="43.051970014348626" lon="11.033469960093498">
        <ele>492</ele>
        <time>2006-06-17T09:51:54Z</time>
      </trkpt>
      <trkpt lat="43.047229964286089" lon="11.036869995296001">
        <ele>481</ele>
        <time>2006-06-17T09:52:27Z</time>
      </trkpt>
      <trkpt lat="43.043330032378435" lon="11.040830025449395">
        <ele>472</ele>
        <time>2006-06-17T09:52:51Z</time>
      </trkpt>
      <trkpt lat="43.042420009151101" lon="11.046870024874806">
        <ele>463</ele>
        <time>2006-06-17T09:53:17Z</time>
      </trkpt>
      <trkpt lat="43.041449971497059" lon="11.050799963995814">
        <ele>462</ele>
        <time>2006-06-17T09:53:39Z</time>
      </trkpt>
      <trkpt lat="43.039830001071095" lon="11.0521200299263">
        <ele>464</ele>
        <time>2006-06-17T09:53:53Z</time>
      </trkpt>
      <trkpt lat="43.037630002945662" lon="11.054499987512827">
        <ele>457</ele>
        <time>2006-06-17T09:54:15Z</time>
      </trkpt>
      <trkpt lat="43.035450037568808" lon="11.056680036708713">
        <ele>464</ele>
        <time>2006-06-17T09:54:33Z</time>
      </trkpt>
      <trkpt lat="43.033049963414669" lon="11.057549994438887">
        <ele>473</ele>
        <time>2006-06-17T09:54:54Z</time>
      </trkpt>
      <trkpt lat="43.032270027324557" lon="11.061269966885448">
        <ele>477</ele>
        <time>2006-06-17T09:55:15Z</time>
      </trkpt>
      <trkpt lat="43.03317996673286" lon="11.064579980447888">
        <ele>485</ele>
        <time>2006-06-17T09:55:32Z</time>
      </trkpt>
      <trkpt lat="43.034730032086372" lon="11.067000003531575">
        <ele>493</ele>
        <time>2006-06-17T09:57:07Z</time>
      </trkpt>
      <trkpt lat="43.035130016505718" lon="11.070900019258261">
        <ele>504</ele>
        <time>2006-06-17T09:57:33Z</time>
      </trkpt>
      <trkpt lat="43.033399991691113" lon="11.074570035561919">
        <ele>514</ele>
        <time>2006-06-17T09:57:54Z</time>
      </trkpt>
      <trkpt lat="43.032630030065775" lon="11.076880004256964">
        <ele>520</ele>
        <time>2006-06-17T09:58:12Z</time>
      </trkpt>
      <trkpt lat="43.03156997077167" lon="11.079869996756315">
        <ele>524</ele>
        <time>2006-06-17T09:58:32Z</time>
      </trkpt>
      <trkpt lat="43.029980007559061" lon="11.080650016665459">
        <ele>535</ele>
        <time>2006-06-17T09:58:50Z</time>
      </trkpt>
      <trkpt lat="43.028079997748137" lon="11.08174997381866">
        <ele>542</ele>
        <time>2006-06-17T09:59:26Z</time>
      </trkpt>
      <trkpt lat="43.029450019821525" lon="11.084750024601817">
        <ele>534</ele>
        <time>2006-06-17T09:59:53Z</time>
      </trkpt>
      <trkpt lat="43.028400018811226" lon="11.085849981755018">
        <ele>534</ele>
        <time>2006-06-17T10:00:11Z</time>
      </trkpt>
      <trkpt lat="43.027699962258339" lon="11.087849987670779">
        <ele>562</ele>
        <time>2006-06-17T10:00:34Z</time>
      </trkpt>
      <trkpt lat="43.025930039584637" lon="11.090000029653311">
        <ele>562</ele>
        <time>2006-06-17T10:00:56Z</time>
      </trkpt>
      <trkpt lat="43.024569991976023" lon="11.092300023883581">
        <ele>576</ele>
        <time>2006-06-17T10:01:20Z</time>
      </trkpt>
      <trkpt lat="43.023099973797798" lon="11.093729976564646">
        <ele>576</ele>
        <time>2006-06-17T10:01:35Z</time>
      </trkpt>
      <trkpt lat="43.023350005969405" lon="11.099799983203411">
        <ele>595</ele>
        <time>2006-06-17T10:02:09Z</time>
      </trkpt>
      <trkpt lat="43.023199969902635" lon="11.104269968345761">
        <ele>590</ele>
        <time>2006-06-17T10:02:34Z</time>
      </trkpt>
      <trkpt lat="43.025080030784011" lon="11.109149996191263">
        <ele>583</ele>
        <time>2006-06-17T10:03:10Z</time>
      </trkpt>
      <trkpt lat="43.025199975818396" lon="11.111970003694296">
        <ele>584</ele>
        <time>2006-06-17T10:03:30Z</time>
      </trkpt>
      <trkpt lat="43.028030041605234" lon="11.11462002620101">
        <ele>566</ele>
        <time>2006-06-17T10:04:00Z</time>
      </trkpt>
      <trkpt lat="43.032370023429394" lon="11.117020016536117">
        <ele>543</ele>
        <time>2006-06-17T10:04:29Z</time>
      </trkpt>
      <trkpt lat="43.034479999914765" lon="11.118479976430535">
        <ele>539</ele>
        <time>2006-06-17T10:04:44Z</time>
      </trkpt>
      <trkpt lat="43.035699985921383" lon="11.121829971671104">
        <ele>538</ele>
        <time>2006-06-17T10:05:01Z</time>
      </trkpt>
      <trkpt lat="43.03683003410697" lon="11.125450031831861">
        <ele>541</ele>
        <time>2006-06-17T10:05:18Z</time>
      </trkpt>
      <trkpt lat="43.036120003089309" lon="11.129179978743196">
        <ele>546</ele>
        <time>2006-06-17T10:05:37Z</time>
      </trkpt>
      <trkpt lat="43.033920004963875" lon="11.130380015820265">
        <ele>549</ele>
        <time>2006-06-17T10:05:54Z</time>
      </trkpt>
      <trkpt lat="43.032849971204996" lon="11.132580013945699">
        <ele>551</ele>
        <time>2006-06-17T10:06:07Z</time>
      </trkpt>
      <trkpt lat="43.030470013618469" lon="11.133999992161989">
        <ele>559</ele>
        <time>2006-06-17T10:06:25Z</time>
      </trkpt>
      <trkpt lat="43.030000040307641" lon="11.136169983074069">
        <ele>552</ele>
        <time>2006-06-17T10:06:36Z</time>
      </trkpt>
      <trkpt lat="43.03148003295064" lon="11.13902997225523">
        <ele>519</ele>
        <time>2006-06-17T10:07:05Z</time>
      </trkpt>
      <trkpt lat="43.032170031219721" lon="11.1408999748528">
        <ele>527</ele>
        <time>2006-06-17T10:07:30Z</time>
      </trkpt>
      <trkpt lat="43.031150037422776" lon="11.142780035734177">
        <ele>507</ele>
        <time>2006-06-17T10:07:48Z</time>
      </trkpt>
      <trkpt lat="43.031420018523932" lon="11.146200019866228">
        <ele>487</ele>
        <time>2006-06-17T10:08:12Z</time>
      </trkpt>
      <trkpt lat="43.029929967597127" lon="11.147569958120584">
        <ele>478</ele>
        <time>2006-06-17T10:08:24Z</time>
      </trkpt>
      <trkpt lat="43.030019989237189" lon="11.150500020012259">
        <ele>464</ele>
        <time>2006-06-17T10:08:49Z</time>
      </trkpt>
      <trkpt lat="43.028669999912381" lon="11.152170030400157">
        <ele>459</ele>
        <time>2006-06-17T10:09:02Z</time>
      </trkpt>
      <trkpt lat="43.028969988226891" lon="11.154900016263127">
        <ele>462</ele>
        <time>2006-06-17T10:10:20Z</time>
      </trkpt>
      <trkpt lat="43.029680019244552" lon="11.157200010493398">
        <ele>472</ele>
        <time>2006-06-17T10:10:32Z</time>
      </trkpt>
      <trkpt lat="43.030000040307641" lon="11.16120002232492">
        <ele>482</ele>
        <time>2006-06-17T10:10:54Z</time>
      </trkpt>
      <trkpt lat="43.02782996557653" lon="11.16216997615993">
        <ele>500</ele>
        <time>2006-06-17T10:11:13Z</time>
      </trkpt>
      <trkpt lat="43.026319965720177" lon="11.164280036464334">
        <ele>517</ele>
        <time>2006-06-17T10:11:32Z</time>
      </trkpt>
      <trkpt lat="43.024750035256147" lon="11.165200034156442">
        <ele>520</ele>
        <time>2006-06-17T10:11:45Z</time>
      </trkpt>
      <trkpt lat="43.025350011885166" lon="11.166880019009113">
        <ele>518</ele>
        <time>2006-06-17T10:12:51Z</time>
      </trkpt>
      <trkpt lat="43.028130037710071" lon="11.168100005015731">
        <ele>492</ele>
        <time>2006-06-17T10:13:18Z</time>
      </trkpt>
      <trkpt lat="43.029929967597127" lon="11.168969962745905">
        <ele>470</ele>
        <time>2006-06-17T10:13:38Z</time>
      </trkpt>
      <trkpt lat="43.030879972502589" lon="11.170070003718138">
        <ele>473</ele>
        <time>2006-06-17T10:13:59Z</time>
      </trkpt>
      <trkpt lat="43.031380036845803" lon="11.172249969094992">
        <ele>474</ele>
        <time>2006-06-17T10:14:17Z</time>
      </trkpt>
      <trkpt lat="43.032119991257787" lon="11.174170011654496">
        <ele>474</ele>
        <time>2006-06-17T10:14:44Z</time>
      </trkpt>
      <trkpt lat="43.034380003809929" lon="11.176179992035031">
        <ele>412</ele>
        <time>2006-06-17T10:15:20Z</time>
      </trkpt>
      <trkpt lat="43.035850021988153" lon="11.176830008625984">
        <ele>380</ele>
        <time>2006-06-17T10:15:42Z</time>
      </trkpt>
      <trkpt lat="43.036819975823164" lon="11.177550014108419">
        <ele>397</ele>
        <time>2006-06-17T10:16:04Z</time>
      </trkpt>
      <trkpt lat="43.037880035117269" lon="11.178279994055629">
        <ele>386</ele>
        <time>2006-06-17T10:16:24Z</time>
      </trkpt>
      <trkpt lat="43.037829995155334" lon="11.181179964914918">
        <ele>377</ele>
        <time>2006-06-17T10:16:47Z</time>
      </trkpt>
      <trkpt lat="43.036250006407499" lon="11.185149969533086">
        <ele>358</ele>
        <time>2006-06-17T10:17:31Z</time>
      </trkpt>
      <trkpt lat="43.034779988229275" lon="11.185680041089654">
        <ele>353</ele>
        <time>2006-06-17T10:17:52Z</time>
      </trkpt>
      <trkpt lat="43.031469974666834" lon="11.189400013536215">
        <ele>333</ele>
        <time>2006-06-17T10:18:39Z</time>
      </trkpt>
      <trkpt lat="43.02987003698945" lon="11.190770035609603">
        <ele>325</ele>
        <time>2006-06-17T10:19:04Z</time>
      </trkpt>
      <trkpt lat="43.029899960383773" lon="11.192770041525364">
        <ele>324</ele>
        <time>2006-06-17T10:19:26Z</time>
      </trkpt>
      <trkpt lat="43.029520008713007" lon="11.194250034168363">
        <ele>290</ele>
        <time>2006-06-17T10:19:45Z</time>
      </trkpt>
      <trkpt lat="43.029469968751073" lon="11.195870004594326">
        <ele>286</ele>
        <time>2006-06-17T10:20:12Z</time>
      </trkpt>
      <trkpt lat="43.029229994863272" lon="11.196799976751208">
        <ele>280</ele>
        <time>2006-06-17T10:21:57Z</time>
      </trkpt>
      <trkpt lat="43.028300022706389" lon="11.19895001873374">
        <ele>285</ele>
        <time>2006-06-17T10:22:29Z</time>
      </trkpt>
      <trkpt lat="43.026049984619021" lon="11.201029988005757">
        <ele>298</ele>
        <time>2006-06-17T10:23:11Z</time>
      </trkpt>
      <trkpt lat="43.023670027032495" lon="11.202669991180301">
        <ele>293</ele>
        <time>2006-06-17T10:23:47Z</time>
      </trkpt>
      <trkpt lat="43.023470034822822" lon="11.204079994931817">
        <ele>296</ele>
        <time>2006-06-17T10:24:21Z</time>
      </trkpt>
      <trkpt lat="43.02495002746582" lon="11.208449983969331">
        <ele>296</ele>
        <time>2006-06-17T10:25:10Z</time>
      </trkpt>
      <trkpt lat="43.025719989091158" lon="11.20949998497963">
        <ele>298</ele>
        <time>2006-06-17T10:25:29Z</time>
      </trkpt>
      <trkpt lat="43.025780003517866" lon="11.211580038070679">
        <ele>297</ele>
        <time>2006-06-17T10:26:06Z</time>
      </trkpt>
      <trkpt lat="43.026030035689473" lon="11.212150007486343">
        <ele>255</ele>
        <time>2006-06-17T10:47:50Z</time>
      </trkpt>
      <trkpt lat="43.024219963699579" lon="11.212819973006845">
        <ele>240</ele>
        <time>2006-06-17T10:48:14Z</time>
      </trkpt>
      <trkpt lat="43.02308002486825" lon="11.213469989597797">
        <ele>223</ele>
        <time>2006-06-17T10:48:36Z</time>
      </trkpt>
      <trkpt lat="43.021500036120415" lon="11.213720021769404">
        <ele>199</ele>
        <time>2006-06-17T10:49:08Z</time>
      </trkpt>
      <trkpt lat="43.020379962399602" lon="11.213699989020824">
        <ele>189</ele>
        <time>2006-06-17T10:49:29Z</time>
      </trkpt>
      <trkpt lat="43.019670015200973" lon="11.213100012391806">
        <ele>195</ele>
        <time>2006-06-17T10:49:42Z</time>
      </trkpt>
      <trkpt lat="43.018380040302873" lon="11.212080018594861">
        <ele>195</ele>
        <time>2006-06-17T10:50:02Z</time>
      </trkpt>
      <trkpt lat="43.015930010005832" lon="11.211430002003908">
        <ele>186</ele>
        <time>2006-06-17T10:50:35Z</time>
      </trkpt>
      <trkpt lat="43.015080001205206" lon="11.211450034752488">
        <ele>183</ele>
        <time>2006-06-17T10:50:49Z</time>
      </trkpt>
      <trkpt lat="43.014169977977872" lon="11.21225000359118">
        <ele>180</ele>
        <time>2006-06-17T10:51:03Z</time>
      </trkpt>
      <trkpt lat="43.012450011447072" lon="11.210949970409274">
        <ele>172</ele>
        <time>2006-06-17T10:51:21Z</time>
      </trkpt>
      <trkpt lat="43.01147997379303" lon="11.211899975314736">
        <ele>171</ele>
        <time>2006-06-17T10:51:37Z</time>
      </trkpt>
      <trkpt lat="43.009869977831841" lon="11.210349993780255">
        <ele>172</ele>
        <time>2006-06-17T10:52:01Z</time>
      </trkpt>
      <trkpt lat="43.007599990814924" lon="11.213929988443851">
        <ele>165</ele>
        <time>2006-06-17T10:52:29Z</time>
      </trkpt>
      <trkpt lat="43.002370018512011" lon="11.216499963775277">
        <ele>149</ele>
        <time>2006-06-17T10:53:13Z</time>
      </trkpt>
      <trkpt lat="42.996620032936335" lon="11.261550011113286">
        <ele>172</ele>
        <time>2006-06-17T10:55:55Z</time>
      </trkpt>
      <trkpt lat="42.998170014470816" lon="11.265529990196228">
        <ele>187</ele>
        <time>2006-06-17T10:56:14Z</time>
      </trkpt>
      <trkpt lat="42.997819986194372" lon="11.269780034199357">
        <ele>213</ele>
        <time>2006-06-17T10:56:37Z</time>
      </trkpt>
      <trkpt lat="42.999780010432005" lon="11.271279975771904">
        <ele>227</ele>
        <time>2006-06-17T10:56:55Z</time>
      </trkpt>
      <trkpt lat="42.998479977250099" lon="11.272830041125417">
        <ele>234</ele>
        <time>2006-06-17T10:57:11Z</time>
      </trkpt>
      <trkpt lat="42.999429982155561" lon="11.275769993662834">
        <ele>253</ele>
        <time>2006-06-17T10:57:32Z</time>
      </trkpt>
      <trkpt lat="42.998620038852096" lon="11.280669970437884">
        <ele>280</ele>
        <time>2006-06-17T10:57:59Z</time>
      </trkpt>
      <trkpt lat="42.997180027887225" lon="11.28285001963377">
        <ele>288</ele>
        <time>2006-06-17T10:58:19Z</time>
      </trkpt>
      <trkpt lat="42.9974299762398" lon="11.28590002655983">
        <ele>293</ele>
        <time>2006-06-17T10:58:46Z</time>
      </trkpt>
      <trkpt lat="42.996219964697957" lon="11.287269964814186">
        <ele>293</ele>
        <time>2006-06-17T11:00:04Z</time>
      </trkpt>
      <trkpt lat="42.996829999610782" lon="11.288920026272535">
        <ele>293</ele>
        <time>2006-06-17T11:00:25Z</time>
      </trkpt>
      <trkpt lat="42.99558000639081" lon="11.289350017905235">
        <ele>291</ele>
        <time>2006-06-17T11:00:49Z</time>
      </trkpt>
      <trkpt lat="42.997580012306571" lon="11.288869986310601">
        <ele>291</ele>
        <time>2006-06-17T11:01:11Z</time>
      </trkpt>
      <trkpt lat="42.999699963256717" lon="11.288500009104609">
        <ele>277</ele>
        <time>2006-06-17T11:01:35Z</time>
      </trkpt>
      <trkpt lat="43.001770041882992" lon="11.288980040699244">
        <ele>252</ele>
        <time>2006-06-17T11:02:00Z</time>
      </trkpt>
      <trkpt lat="43.003580030053854" lon="11.291069984436035">
        <ele>250</ele>
        <time>2006-06-17T11:02:23Z</time>
      </trkpt>
      <trkpt lat="43.003720007836819" lon="11.293030008673668">
        <ele>196</ele>
        <time>2006-06-17T11:02:40Z</time>
      </trkpt>
      <trkpt lat="43.004900012165308" lon="11.292200032621622">
        <ele>189</ele>
        <time>2006-06-17T11:02:58Z</time>
      </trkpt>
      <trkpt lat="43.00537995994091" lon="11.294370023533702">
        <ele>184</ele>
        <time>2006-06-17T11:03:23Z</time>
      </trkpt>
      <trkpt lat="43.006619978696108" lon="11.296119997277856">
        <ele>164</ele>
        <time>2006-06-17T11:03:57Z</time>
      </trkpt>
      <trkpt lat="43.008779995143414" lon="11.297300001606345">
        <ele>179</ele>
        <time>2006-06-17T11:04:28Z</time>
      </trkpt>
      <trkpt lat="43.008700031787157" lon="11.299270000308752">
        <ele>200</ele>
        <time>2006-06-17T11:04:55Z</time>
      </trkpt>
      <trkpt lat="43.009869977831841" lon="11.298800026997924">
        <ele>207</ele>
        <time>2006-06-17T11:05:09Z</time>
      </trkpt>
      <trkpt lat="43.011699998751283" lon="11.302029993385077">
        <ele>243</ele>
        <time>2006-06-17T11:05:39Z</time>
      </trkpt>
      <trkpt lat="43.013579975813627" lon="11.303449971601367">
        <ele>251</ele>
        <time>2006-06-17T11:05:55Z</time>
      </trkpt>
      <trkpt lat="43.015769999474287" lon="11.304499972611666">
        <ele>270</ele>
        <time>2006-06-17T11:06:12Z</time>
      </trkpt>
      <trkpt lat="43.017100039869547" lon="11.305230036377907">
        <ele>280</ele>
        <time>2006-06-17T11:06:29Z</time>
      </trkpt>
      <trkpt lat="43.01915000192821" lon="11.305470010265708">
        <ele>299</ele>
        <time>2006-06-17T11:06:51Z</time>
      </trkpt>
      <trkpt lat="43.020680034533143" lon="11.306620007380843">
        <ele>305</ele>
        <time>2006-06-17T11:07:03Z</time>
      </trkpt>
      <trkpt lat="43.021099967882037" lon="11.308079967275262">
        <ele>323</ele>
        <time>2006-06-17T11:07:16Z</time>
      </trkpt>
      <trkpt lat="43.025199975818396" lon="11.306819999590516">
        <ele>366</ele>
        <time>2006-06-17T11:07:49Z</time>
      </trkpt>
      <trkpt lat="43.026820030063391" lon="11.306079961359501">
        <ele>374</ele>
        <time>2006-06-17T11:08:04Z</time>
      </trkpt>
      <trkpt lat="43.028700007125735" lon="11.305279992520809">
        <ele>379</ele>
        <time>2006-06-17T11:08:21Z</time>
      </trkpt>
      <trkpt lat="43.030070029199123" lon="11.302250018343329">
        <ele>397</ele>
        <time>2006-06-17T11:08:41Z</time>
      </trkpt>
      <trkpt lat="43.032370023429394" lon="11.301830001175404">
        <ele>391</ele>
        <time>2006-06-17T11:08:58Z</time>
      </trkpt>
      <trkpt lat="43.036169959232211" lon="11.298919972032309">
        <ele>394</ele>
        <time>2006-06-17T11:09:26Z</time>
      </trkpt>
      <trkpt lat="43.039019973948598" lon="11.297399997711182">
        <ele>422</ele>
        <time>2006-06-17T11:09:43Z</time>
      </trkpt>
      <trkpt lat="43.040979998186231" lon="11.297249961644411">
        <ele>429</ele>
        <time>2006-06-17T11:09:57Z</time>
      </trkpt>
      <trkpt lat="43.043249985203147" lon="11.297950018197298">
        <ele>423</ele>
        <time>2006-06-17T11:10:16Z</time>
      </trkpt>
      <trkpt lat="43.0456199683249" lon="11.29786997102201">
        <ele>400</ele>
        <time>2006-06-17T11:10:46Z</time>
      </trkpt>
      <trkpt lat="43.048580037429929" lon="11.295480038970709">
        <ele>380</ele>
        <time>2006-06-17T11:13:06Z</time>
      </trkpt>
      <trkpt lat="43.050579959526658" lon="11.294149998575449">
        <ele>385</ele>
        <time>2006-06-17T11:13:28Z</time>
      </trkpt>
      <trkpt lat="43.052500002086163" lon="11.29481996409595">
        <ele>373</ele>
        <time>2006-06-17T11:13:45Z</time>
      </trkpt>
      <trkpt lat="43.054130030795932" lon="11.294530034065247">
        <ele>368</ele>
        <time>2006-06-17T11:13:58Z</time>
      </trkpt>
      <trkpt lat="43.055369965732098" lon="11.29660002887249">
        <ele>382</ele>
        <time>2006-06-17T11:14:18Z</time>
      </trkpt>
      <trkpt lat="43.061429997906089" lon="11.304719997569919">
        <ele>417</ele>
        <time>2006-06-17T11:15:38Z</time>
      </trkpt>
      <trkpt lat="43.06257002055645" lon="11.306450022384524">
        <ele>394</ele>
        <time>2006-06-17T12:20:52Z</time>
      </trkpt>
      <trkpt lat="43.063950017094612" lon="11.307500023394823">
        <ele>386</ele>
        <time>2006-06-17T12:21:06Z</time>
      </trkpt>
      <trkpt lat="43.066399963572621" lon="11.308299992233515">
        <ele>349</ele>
        <time>2006-06-17T12:21:30Z</time>
      </trkpt>
      <trkpt lat="43.0678999889642" lon="11.309570018202066">
        <ele>330</ele>
        <time>2006-06-17T12:21:45Z</time>
      </trkpt>
      <trkpt lat="43.070350019261241" lon="11.30947002209723">
        <ele>323</ele>
        <time>2006-06-17T12:22:02Z</time>
      </trkpt>
      <trkpt lat="43.07097002863884" lon="11.309229964390397">
        <ele>316</ele>
        <time>2006-06-17T12:23:23Z</time>
      </trkpt>
      <trkpt lat="43.07097002863884" lon="11.309380000457168">
        <ele>330</ele>
        <time>2006-06-17T12:25:01Z</time>
      </trkpt>
      <trkpt lat="43.073479989543557" lon="11.311480002477765">
        <ele>291</ele>
        <time>2006-06-17T12:25:29Z</time>
      </trkpt>
      <trkpt lat="43.075470020994544" lon="11.310169994831085">
        <ele>269</ele>
        <time>2006-06-17T12:25:44Z</time>
      </trkpt>
      <trkpt lat="43.077649986371398" lon="11.309180008247495">
        <ele>233</ele>
        <time>2006-06-17T12:26:04Z</time>
      </trkpt>
      <trkpt lat="43.078369991853833" lon="11.308980016037822">
        <ele>225</ele>
        <time>2006-06-17T12:26:15Z</time>
      </trkpt>
      <trkpt lat="43.078399999067187" lon="11.305149989202619">
        <ele>189</ele>
        <time>2006-06-17T12:27:40Z</time>
      </trkpt>
      <trkpt lat="43.079549996182323" lon="11.301200017333031">
        <ele>140</ele>
        <time>2006-06-17T12:28:04Z</time>
      </trkpt>
      <trkpt lat="43.078950019553304" lon="11.299969973042607">
        <ele>129</ele>
        <time>2006-06-17T12:28:17Z</time>
      </trkpt>
      <trkpt lat="43.080899985507131" lon="11.299969973042607">
        <ele>129</ele>
        <time>2006-06-17T12:28:47Z</time>
      </trkpt>
      <trkpt lat="43.083380023017526" lon="11.302519999444485">
        <ele>111</ele>
        <time>2006-06-17T12:29:10Z</time>
      </trkpt>
      <trkpt lat="43.086279993876815" lon="11.305179996415973">
        <ele>108</ele>
        <time>2006-06-17T12:29:32Z</time>
      </trkpt>
      <trkpt lat="43.089480036869645" lon="11.30425002425909">
        <ele>141</ele>
        <time>2006-06-17T12:29:55Z</time>
      </trkpt>
      <trkpt lat="43.091680034995079" lon="11.306999959051609">
        <ele>150</ele>
        <time>2006-06-17T12:30:20Z</time>
      </trkpt>
      <trkpt lat="43.091699983924627" lon="11.309050004929304">
        <ele>164</ele>
        <time>2006-06-17T12:31:02Z</time>
      </trkpt>
      <trkpt lat="43.091880027204752" lon="11.312569985166192">
        <ele>176</ele>
        <time>2006-06-17T12:31:21Z</time>
      </trkpt>
      <trkpt lat="43.091430002823472" lon="11.316079990938306">
        <ele>178</ele>
        <time>2006-06-17T12:31:41Z</time>
      </trkpt>
      <trkpt lat="43.091929983347654" lon="11.318779969587922">
        <ele>190</ele>
        <time>2006-06-17T12:32:05Z</time>
      </trkpt>
      <trkpt lat="43.093479964882135" lon="11.319599971175194">
        <ele>169</ele>
        <time>2006-06-17T12:32:20Z</time>
      </trkpt>
      <trkpt lat="43.093920014798641" lon="11.322050001472235">
        <ele>149</ele>
        <time>2006-06-17T12:32:40Z</time>
      </trkpt>
      <trkpt lat="43.094570031389594" lon="11.325130015611649">
        <ele>125</ele>
        <time>2006-06-17T12:33:01Z</time>
      </trkpt>
      <trkpt lat="43.095599999651313" lon="11.327019967138767">
        <ele>121</ele>
        <time>2006-06-17T12:33:20Z</time>
      </trkpt>
      <trkpt lat="43.099149987101555" lon="11.326020006090403">
        <ele>115</ele>
        <time>2006-06-17T12:33:52Z</time>
      </trkpt>
      <trkpt lat="43.100870037451386" lon="11.325699985027313">
        <ele>132</ele>
        <time>2006-06-17T12:34:12Z</time>
      </trkpt>
      <trkpt lat="43.103919960558414" lon="11.328749991953373">
        <ele>164</ele>
        <time>2006-06-17T12:34:38Z</time>
      </trkpt>
      <trkpt lat="43.105270033702254" lon="11.330780005082488">
        <ele>167</ele>
        <time>2006-06-17T12:34:53Z</time>
      </trkpt>
      <trkpt lat="43.10912998393178" lon="11.332120019942522">
        <ele>174</ele>
        <time>2006-06-17T12:35:21Z</time>
      </trkpt>
      <trkpt lat="43.110579969361424" lon="11.334929969161749">
        <ele>187</ele>
        <time>2006-06-17T12:35:47Z</time>
      </trkpt>
      <trkpt lat="43.112219972535968" lon="11.336369980126619">
        <ele>183</ele>
        <time>2006-06-17T12:36:15Z</time>
      </trkpt>
      <trkpt lat="43.112079994753003" lon="11.337549984455109">
        <ele>193</ele>
        <time>2006-06-17T12:37:09Z</time>
      </trkpt>
      <trkpt lat="43.114370014518499" lon="11.33922996930778">
        <ele>200</ele>
        <time>2006-06-17T12:37:32Z</time>
      </trkpt>
      <trkpt lat="43.115520011633635" lon="11.342530008405447">
        <ele>209</ele>
        <time>2006-06-17T12:37:52Z</time>
      </trkpt>
      <trkpt lat="43.118849974125624" lon="11.344079989939928">
        <ele>237</ele>
        <time>2006-06-17T12:38:16Z</time>
      </trkpt>
      <trkpt lat="43.120600031688809" lon="11.345849996432662">
        <ele>253</ele>
        <time>2006-06-17T12:38:32Z</time>
      </trkpt>
      <trkpt lat="43.122220002114773" lon="11.345450012013316">
        <ele>261</ele>
        <time>2006-06-17T12:38:46Z</time>
      </trkpt>
      <trkpt lat="43.12429997138679" lon="11.344130029901862">
        <ele>249</ele>
        <time>2006-06-17T12:39:03Z</time>
      </trkpt>
      <trkpt lat="43.129119984805584" lon="11.343499962240458">
        <ele>254</ele>
        <time>2006-06-17T12:39:34Z</time>
      </trkpt>
      <trkpt lat="43.131479993462563" lon="11.345020020380616">
        <ele>257</ele>
        <time>2006-06-17T12:39:52Z</time>
      </trkpt>
      <trkpt lat="43.13357999548316" lon="11.347020026296377">
        <ele>276</ele>
        <time>2006-06-17T12:40:10Z</time>
      </trkpt>
      <trkpt lat="43.136000018566847" lon="11.346669998019934">
        <ele>278</ele>
        <time>2006-06-17T12:40:26Z</time>
      </trkpt>
      <trkpt lat="43.137970017269254" lon="11.347469966858625">
        <ele>296</ele>
        <time>2006-06-17T12:40:42Z</time>
      </trkpt>
      <trkpt lat="43.138699997216463" lon="11.344130029901862">
        <ele>326</ele>
        <time>2006-06-17T12:41:03Z</time>
      </trkpt>
      <trkpt lat="43.141870032995939" lon="11.341919973492622">
        <ele>370</ele>
        <time>2006-06-17T12:41:28Z</time>
      </trkpt>
      <trkpt lat="43.143199989572167" lon="11.337700020521879">
        <ele>378</ele>
        <time>2006-06-17T12:41:51Z</time>
      </trkpt>
      <trkpt lat="43.143369974568486" lon="11.334069985896349">
        <ele>378</ele>
        <time>2006-06-17T12:42:09Z</time>
      </trkpt>
      <trkpt lat="43.144619967788458" lon="11.332129994407296">
        <ele>379</ele>
        <time>2006-06-17T12:42:25Z</time>
      </trkpt>
      <trkpt lat="43.148700026795268" lon="11.332729971036315">
        <ele>358</ele>
        <time>2006-06-17T12:42:53Z</time>
      </trkpt>
      <trkpt lat="43.153049983084202" lon="11.331449970602989">
        <ele>375</ele>
        <time>2006-06-17T12:43:23Z</time>
      </trkpt>
      <trkpt lat="43.155349977314472" lon="11.33039996959269">
        <ele>398</ele>
        <time>2006-06-17T12:43:41Z</time>
      </trkpt>
      <trkpt lat="43.156480025500059" lon="11.328830039128661">
        <ele>410</ele>
        <time>2006-06-17T12:43:58Z</time>
      </trkpt>
      <trkpt lat="43.158580027520657" lon="11.32667999714613">
        <ele>401</ele>
        <time>2006-06-17T12:44:21Z</time>
      </trkpt>
      <trkpt lat="43.160499986261129" lon="11.326329968869686">
        <ele>388</ele>
        <time>2006-06-17T12:44:49Z</time>
      </trkpt>
      <trkpt lat="43.163580000400543" lon="11.324819969013333">
        <ele>376</ele>
        <time>2006-06-17T12:45:22Z</time>
      </trkpt>
      <trkpt lat="43.172649974003434" lon="11.323030013591051">
        <ele>396</ele>
        <time>2006-06-17T12:47:18Z</time>
      </trkpt>
      <trkpt lat="43.174749976024032" lon="11.324779987335205">
        <ele>409</ele>
        <time>2006-06-17T12:47:37Z</time>
      </trkpt>
      <trkpt lat="43.177820015698671" lon="11.325130015611649">
        <ele>417</ele>
        <time>2006-06-17T12:48:01Z</time>
      </trkpt>
      <trkpt lat="43.177520027384162" lon="11.33042000234127">
        <ele>420</ele>
        <time>2006-06-17T12:48:31Z</time>
      </trkpt>
      <trkpt lat="43.178900023922324" lon="11.332980003207922">
        <ele>420</ele>
        <time>2006-06-17T12:48:47Z</time>
      </trkpt>
      <trkpt lat="43.179999981075525" lon="11.338829984888434">
        <ele>420</ele>
        <time>2006-06-17T12:49:18Z</time>
      </trkpt>
      <trkpt lat="43.179980032145977" lon="11.343770027160645">
        <ele>420</ele>
        <time>2006-06-17T12:49:39Z</time>
      </trkpt>
      <trkpt lat="43.181750038638711" lon="11.345469960942864">
        <ele>413</ele>
        <time>2006-06-17T12:49:53Z</time>
      </trkpt>
      <trkpt lat="43.182570040225983" lon="11.349750012159348">
        <ele>410</ele>
        <time>2006-06-17T12:50:12Z</time>
      </trkpt>
      <trkpt lat="43.182870028540492" lon="11.354050012305379">
        <ele>410</ele>
        <time>2006-06-17T12:50:31Z</time>
      </trkpt>
      <trkpt lat="43.185479985550046" lon="11.358770029619336">
        <ele>389</ele>
        <time>2006-06-17T12:50:56Z</time>
      </trkpt>
      <trkpt lat="43.185879969969392" lon="11.361979963257909">
        <ele>388</ele>
        <time>2006-06-17T12:51:11Z</time>
      </trkpt>
      <trkpt lat="43.184880008921027" lon="11.364980014041066">
        <ele>388</ele>
        <time>2006-06-17T12:51:29Z</time>
      </trkpt>
      <trkpt lat="43.183779967948794" lon="11.367719974368811">
        <ele>388</ele>
        <time>2006-06-17T12:51:48Z</time>
      </trkpt>
      <trkpt lat="43.184169977903366" lon="11.373880002647638">
        <ele>388</ele>
        <time>2006-06-17T12:52:14Z</time>
      </trkpt>
      <trkpt lat="43.182570040225983" lon="11.376200029626489">
        <ele>388</ele>
        <time>2006-06-17T12:52:29Z</time>
      </trkpt>
      <trkpt lat="43.181730005890131" lon="11.381969964131713">
        <ele>388</ele>
        <time>2006-06-17T12:52:52Z</time>
      </trkpt>
      <trkpt lat="43.179000020027161" lon="11.384299965575337">
        <ele>388</ele>
        <time>2006-06-17T12:53:11Z</time>
      </trkpt>
      <trkpt lat="43.177399998530746" lon="11.386199975386262">
        <ele>388</ele>
        <time>2006-06-17T12:53:24Z</time>
      </trkpt>
      <trkpt lat="43.174249995499849" lon="11.389300022274256">
        <ele>383</ele>
        <time>2006-06-17T12:54:56Z</time>
      </trkpt>
      <trkpt lat="43.17261996679008" lon="11.39107002876699">
        <ele>389</ele>
        <time>2006-06-17T12:57:24Z</time>
      </trkpt>
      <trkpt lat="43.169280029833317" lon="11.390079958364367">
        <ele>376</ele>
        <time>2006-06-17T12:57:53Z</time>
      </trkpt>
      <trkpt lat="43.166869981214404" lon="11.390150031074882">
        <ele>364</ele>
        <time>2006-06-17T12:58:07Z</time>
      </trkpt>
      <trkpt lat="43.162249960005283" lon="11.391779975965619">
        <ele>374</ele>
        <time>2006-06-17T12:58:36Z</time>
      </trkpt>
      <trkpt lat="43.159430036321282" lon="11.394320027902722">
        <ele>364</ele>
        <time>2006-06-17T12:58:58Z</time>
      </trkpt>
      <trkpt lat="43.159170029684901" lon="11.399220004677773">
        <ele>366</ele>
        <time>2006-06-17T12:59:20Z</time>
      </trkpt>
      <trkpt lat="43.156529981642962" lon="11.399979991838336">
        <ele>366</ele>
        <time>2006-06-17T12:59:39Z</time>
      </trkpt>
      <trkpt lat="43.156580021604896" lon="11.404319973662496">
        <ele>358</ele>
        <time>2006-06-17T13:00:01Z</time>
      </trkpt>
      <trkpt lat="43.154729967936873" lon="11.405369974672794">
        <ele>361</ele>
        <time>2006-06-17T13:00:13Z</time>
      </trkpt>
      <trkpt lat="43.151100017130375" lon="11.406849967315793">
        <ele>363</ele>
        <time>2006-06-17T13:00:36Z</time>
      </trkpt>
      <trkpt lat="43.149130018427968" lon="11.406800011172891">
        <ele>362</ele>
        <time>2006-06-17T13:00:52Z</time>
      </trkpt>
      <trkpt lat="43.147929981350899" lon="11.410050010308623">
        <ele>349</ele>
        <time>2006-06-17T13:01:11Z</time>
      </trkpt>
      <trkpt lat="43.145580030977726" lon="11.414029989391565">
        <ele>337</ele>
        <time>2006-06-17T13:01:36Z</time>
      </trkpt>
      <trkpt lat="43.145380038768053" lon="11.421119989827275">
        <ele>295</ele>
        <time>2006-06-17T13:02:19Z</time>
      </trkpt>
      <trkpt lat="43.142579980194569" lon="11.421470018103719">
        <ele>267</ele>
        <time>2006-06-17T13:04:35Z</time>
      </trkpt>
      <trkpt lat="43.139680009335279" lon="11.4208700414747">
        <ele>274</ele>
        <time>2006-06-17T13:04:54Z</time>
      </trkpt>
      <trkpt lat="43.137529967352748" lon="11.422599982470274">
        <ele>282</ele>
        <time>2006-06-17T13:05:10Z</time>
      </trkpt>
      <trkpt lat="43.13403001986444" lon="11.426330013200641">
        <ele>308</ele>
        <time>2006-06-17T13:05:36Z</time>
      </trkpt>
      <trkpt lat="43.131400030106306" lon="11.426669983193278">
        <ele>313</ele>
        <time>2006-06-17T13:05:50Z</time>
      </trkpt>
      <trkpt lat="43.128799963742495" lon="11.432019984349608">
        <ele>319</ele>
        <time>2006-06-17T13:06:15Z</time>
      </trkpt>
      <trkpt lat="43.130069989711046" lon="11.436349991708994">
        <ele>315</ele>
        <time>2006-06-17T13:06:34Z</time>
      </trkpt>
      <trkpt lat="43.130280040204525" lon="11.441650036722422">
        <ele>312</ele>
        <time>2006-06-17T13:06:54Z</time>
      </trkpt>
      <trkpt lat="43.127419967204332" lon="11.44517001695931">
        <ele>302</ele>
        <time>2006-06-17T13:07:14Z</time>
      </trkpt>
      <trkpt lat="43.126020021736622" lon="11.447479985654354">
        <ele>297</ele>
        <time>2006-06-17T13:07:27Z</time>
      </trkpt>
      <trkpt lat="43.124919980764389" lon="11.448650015518069">
        <ele>302</ele>
        <time>2006-06-17T13:08:28Z</time>
      </trkpt>
      <trkpt lat="43.126949993893504" lon="11.452230010181665">
        <ele>282</ele>
        <time>2006-06-17T13:08:55Z</time>
      </trkpt>
      <trkpt lat="43.12951996922493" lon="11.457050023600459">
        <ele>216</ele>
        <time>2006-06-17T13:09:23Z</time>
      </trkpt>
      <trkpt lat="43.13312997110188" lon="11.46392997354269">
        <ele>200</ele>
        <time>2006-06-17T13:09:54Z</time>
      </trkpt>
      <trkpt lat="43.136799987405539" lon="11.481800023466349">
        <ele>186</ele>
        <time>2006-06-17T13:11:20Z</time>
      </trkpt>
      <trkpt lat="43.132130010053515" lon="11.482269996777177">
        <ele>189</ele>
        <time>2006-06-17T13:12:51Z</time>
      </trkpt>
      <trkpt lat="43.134120041504502" lon="11.483080023899674">
        <ele>187</ele>
        <time>2006-06-17T13:13:13Z</time>
      </trkpt>
      <trkpt lat="43.134829988703132" lon="11.485580010339618">
        <ele>189</ele>
        <time>2006-06-17T13:13:37Z</time>
      </trkpt>
      <trkpt lat="43.137719985097647" lon="11.485849991440773">
        <ele>190</ele>
        <time>2006-06-17T13:14:06Z</time>
      </trkpt>
      <trkpt lat="43.137519992887974" lon="11.493729986250401">
        <ele>197</ele>
        <time>2006-06-17T13:14:47Z</time>
      </trkpt>
      <trkpt lat="43.135219998657703" lon="11.498600039631128">
        <ele>205</ele>
        <time>2006-06-17T13:15:11Z</time>
      </trkpt>
      <trkpt lat="43.13360002823174" lon="11.50777998380363">
        <ele>258</ele>
        <time>2006-06-17T13:15:47Z</time>
      </trkpt>
      <trkpt lat="43.135600034147501" lon="11.512669986113906">
        <ele>274</ele>
        <time>2006-06-17T13:16:18Z</time>
      </trkpt>
      <trkpt lat="43.136420035734773" lon="11.515150023624301">
        <ele>271</ele>
        <time>2006-06-17T13:16:35Z</time>
      </trkpt>
      <trkpt lat="43.134820014238358" lon="11.517829969525337">
        <ele>275</ele>
        <time>2006-06-17T13:16:54Z</time>
      </trkpt>
      <trkpt lat="43.135169958695769" lon="11.52417004108429">
        <ele>291</ele>
        <time>2006-06-17T13:17:31Z</time>
      </trkpt>
      <trkpt lat="43.134469985961914" lon="11.52829997241497">
        <ele>304</ele>
        <time>2006-06-17T13:17:54Z</time>
      </trkpt>
      <trkpt lat="43.135169958695769" lon="11.530799958854914">
        <ele>311</ele>
        <time>2006-06-17T13:18:09Z</time>
      </trkpt>
      <trkpt lat="43.133630035445094" lon="11.535870004445314">
        <ele>312</ele>
        <time>2006-06-17T13:18:34Z</time>
      </trkpt>
      <trkpt lat="43.132320027798414" lon="11.539080021902919">
        <ele>326</ele>
        <time>2006-06-17T13:18:52Z</time>
      </trkpt>
      <trkpt lat="43.131949966773391" lon="11.542000025510788">
        <ele>335</ele>
        <time>2006-06-17T13:19:11Z</time>
      </trkpt>
      <trkpt lat="43.133549988269806" lon="11.548019992187619">
        <ele>345</ele>
        <time>2006-06-17T13:19:43Z</time>
      </trkpt>
      <trkpt lat="43.131249994039536" lon="11.551769971847534">
        <ele>325</ele>
        <time>2006-06-17T13:20:09Z</time>
      </trkpt>
      <trkpt lat="43.129700012505054" lon="11.553079979494214">
        <ele>308</ele>
        <time>2006-06-17T13:20:32Z</time>
      </trkpt>
      <trkpt lat="43.131100041791797" lon="11.555079985409975">
        <ele>294</ele>
        <time>2006-06-17T13:20:58Z</time>
      </trkpt>
      <trkpt lat="43.132369983941317" lon="11.554099973291159">
        <ele>284</ele>
        <time>2006-06-17T13:21:12Z</time>
      </trkpt>
      <trkpt lat="43.131200037896633" lon="11.55670003965497">
        <ele>258</ele>
        <time>2006-06-17T13:21:40Z</time>
      </trkpt>
      <trkpt lat="43.13315000385046" lon="11.555950026959181">
        <ele>244</ele>
        <time>2006-06-17T13:22:05Z</time>
      </trkpt>
      <trkpt lat="43.134130015969276" lon="11.559400018304586">
        <ele>252</ele>
        <time>2006-06-17T13:22:30Z</time>
      </trkpt>
      <trkpt lat="43.13633001409471" lon="11.563200037926435">
        <ele>282</ele>
        <time>2006-06-17T13:22:56Z</time>
      </trkpt>
      <trkpt lat="43.136430010199547" lon="11.565470024943352">
        <ele>292</ele>
        <time>2006-06-17T13:23:11Z</time>
      </trkpt>
      <trkpt lat="43.137470036745071" lon="11.564379958435893">
        <ele>311</ele>
        <time>2006-06-17T13:23:47Z</time>
      </trkpt>
      <trkpt lat="43.138000024482608" lon="11.567169958725572">
        <ele>327</ele>
        <time>2006-06-17T13:24:07Z</time>
      </trkpt>
      <trkpt lat="43.138620033860207" lon="11.569830039516091">
        <ele>333</ele>
        <time>2006-06-17T13:24:57Z</time>
      </trkpt>
      <trkpt lat="43.138170009478927" lon="11.571979997679591">
        <ele>330</ele>
        <time>2006-06-17T13:25:17Z</time>
      </trkpt>
      <trkpt lat="43.138119969516993" lon="11.574379988014698">
        <ele>325</ele>
        <time>2006-06-17T13:25:34Z</time>
      </trkpt>
      <trkpt lat="43.138769986107945" lon="11.576849967241287">
        <ele>306</ele>
        <time>2006-06-17T13:27:19Z</time>
      </trkpt>
      <trkpt lat="43.137770025059581" lon="11.578619973734021">
        <ele>294</ele>
        <time>2006-06-17T13:27:35Z</time>
      </trkpt>
      <trkpt lat="43.134269993752241" lon="11.576070031151175">
        <ele>292</ele>
        <time>2006-06-17T13:30:27Z</time>
      </trkpt>
      <trkpt lat="43.128850003704429" lon="11.574670001864433">
        <ele>290</ele>
        <time>2006-06-17T13:30:55Z</time>
      </trkpt>
      <trkpt lat="43.123200014233589" lon="11.575120026245713">
        <ele>291</ele>
        <time>2006-06-17T13:31:21Z</time>
      </trkpt>
      <trkpt lat="43.118070038035512" lon="11.571529973298311">
        <ele>290</ele>
        <time>2006-06-17T13:31:48Z</time>
      </trkpt>
      <trkpt lat="43.103379998356104" lon="11.566200004890561">
        <ele>276</ele>
        <time>2006-06-17T13:32:59Z</time>
      </trkpt>
      <trkpt lat="43.096450008451939" lon="11.561319977045059">
        <ele>275</ele>
        <time>2006-06-17T13:33:36Z</time>
      </trkpt>
      <trkpt lat="43.090679990127683" lon="11.554129980504513">
        <ele>276</ele>
        <time>2006-06-17T13:34:12Z</time>
      </trkpt>
      <trkpt lat="43.087620008736849" lon="11.549399988725781">
        <ele>277</ele>
        <time>2006-06-17T13:34:40Z</time>
      </trkpt>
      <trkpt lat="43.086080001667142" lon="11.549269985407591">
        <ele>277</ele>
        <time>2006-06-17T13:35:05Z</time>
      </trkpt>
      <trkpt lat="43.084149984642863" lon="11.552480002865195">
        <ele>265</ele>
        <time>2006-06-17T13:35:41Z</time>
      </trkpt>
      <trkpt lat="43.083599964156747" lon="11.555620031431317">
        <ele>275</ele>
        <time>2006-06-17T13:37:46Z</time>
      </trkpt>
      <trkpt lat="43.084500012919307" lon="11.55887003056705">
        <ele>299</ele>
        <time>2006-06-17T13:38:12Z</time>
      </trkpt>
      <trkpt lat="43.084930004552007" lon="11.561119984835386">
        <ele>315</ele>
        <time>2006-06-17T13:38:32Z</time>
      </trkpt>
      <trkpt lat="43.081870023161173" lon="11.56679998151958">
        <ele>340</ele>
        <time>2006-06-17T13:39:10Z</time>
      </trkpt>
      <trkpt lat="43.081020014360547" lon="11.57000002451241">
        <ele>346</ele>
        <time>2006-06-17T13:39:28Z</time>
      </trkpt>
      <trkpt lat="43.079870017245412" lon="11.570530012249947">
        <ele>355</ele>
        <time>2006-06-17T13:40:18Z</time>
      </trkpt>
      <trkpt lat="43.081919979304075" lon="11.572130033746362">
        <ele>364</ele>
        <time>2006-06-17T13:40:42Z</time>
      </trkpt>
      <trkpt lat="43.084030039608479" lon="11.577550023794174">
        <ele>373</ele>
        <time>2006-06-17T13:41:10Z</time>
      </trkpt>
      <trkpt lat="43.085069982334971" lon="11.580329965800047">
        <ele>387</ele>
        <time>2006-06-17T13:41:28Z</time>
      </trkpt>
      <trkpt lat="43.086730018258095" lon="11.583200013265014">
        <ele>385</ele>
        <time>2006-06-17T13:41:55Z</time>
      </trkpt>
      <trkpt lat="43.090229965746403" lon="11.586069976910949">
        <ele>381</ele>
        <time>2006-06-17T13:42:30Z</time>
      </trkpt>
      <trkpt lat="43.093000017106533" lon="11.58894999884069">
        <ele>373</ele>
        <time>2006-06-17T13:42:59Z</time>
      </trkpt>
      <trkpt lat="43.094580005854368" lon="11.591219985857606">
        <ele>365</ele>
        <time>2006-06-17T13:43:17Z</time>
      </trkpt>
      <trkpt lat="43.095929995179176" lon="11.594580039381981">
        <ele>369</ele>
        <time>2006-06-17T13:43:37Z</time>
      </trkpt>
      <trkpt lat="43.096979996189475" lon="11.59705001860857">
        <ele>378</ele>
        <time>2006-06-17T13:43:59Z</time>
      </trkpt>
      <trkpt lat="43.098029997199774" lon="11.598420040681958">
        <ele>378</ele>
        <time>2006-06-17T13:44:14Z</time>
      </trkpt>
      <trkpt lat="43.098949994891882" lon="11.597250010818243">
        <ele>375</ele>
        <time>2006-06-17T13:44:30Z</time>
      </trkpt>
      <trkpt lat="43.100380031391978" lon="11.599150020629168">
        <ele>380</ele>
        <time>2006-06-17T13:44:47Z</time>
      </trkpt>
      <trkpt lat="43.10259997844696" lon="11.600879961624742">
        <ele>381</ele>
        <time>2006-06-17T13:45:09Z</time>
      </trkpt>
      <trkpt lat="43.104980019852519" lon="11.600669994950294">
        <ele>392</ele>
        <time>2006-06-17T13:49:05Z</time>
      </trkpt>
      <trkpt lat="43.106479961425066" lon="11.600249977782369">
        <ele>390</ele>
        <time>2006-06-17T13:49:22Z</time>
      </trkpt>
      <trkpt lat="43.108230018988252" lon="11.601569959893823">
        <ele>398</ele>
        <time>2006-06-17T13:49:42Z</time>
      </trkpt>
      <trkpt lat="43.108769981190562" lon="11.604670006781816">
        <ele>378</ele>
        <time>2006-06-17T13:50:05Z</time>
      </trkpt>
      <trkpt lat="43.110820027068257" lon="11.60671996884048">
        <ele>394</ele>
        <time>2006-06-17T13:50:28Z</time>
      </trkpt>
      <trkpt lat="43.113129995763302" lon="11.608779989182949">
        <ele>381</ele>
        <time>2006-06-17T13:50:57Z</time>
      </trkpt>
      <trkpt lat="43.114800006151199" lon="11.612080028280616">
        <ele>387</ele>
        <time>2006-06-17T13:51:21Z</time>
      </trkpt>
      <trkpt lat="43.116129962727427" lon="11.614399971440434">
        <ele>396</ele>
        <time>2006-06-17T13:51:40Z</time>
      </trkpt>
      <trkpt lat="43.115729978308082" lon="11.617100033909082">
        <ele>402</ele>
        <time>2006-06-17T13:52:15Z</time>
      </trkpt>
      <trkpt lat="43.115220023319125" lon="11.618450023233891">
        <ele>389</ele>
        <time>2006-06-17T13:53:04Z</time>
      </trkpt>
      <trkpt lat="43.115699971094728" lon="11.617119982838631">
        <ele>391</ele>
        <time>2006-06-17T13:53:29Z</time>
      </trkpt>
      <trkpt lat="43.115650014951825" lon="11.617969991639256">
        <ele>398</ele>
        <time>2006-06-17T13:53:54Z</time>
      </trkpt>
      <trkpt lat="43.115750011056662" lon="11.617080001160502">
        <ele>399</ele>
        <time>2006-06-17T13:57:37Z</time>
      </trkpt>
      <trkpt lat="43.114649970084429" lon="11.622650027275085">
        <ele>393</ele>
        <time>2006-06-17T13:58:49Z</time>
      </trkpt>
      <trkpt lat="43.114879969507456" lon="11.625900026410818">
        <ele>386</ele>
        <time>2006-06-17T13:59:08Z</time>
      </trkpt>
      <trkpt lat="43.114849962294102" lon="11.630500014871359">
        <ele>384</ele>
        <time>2006-06-17T13:59:32Z</time>
      </trkpt>
      <trkpt lat="43.116180002689362" lon="11.632349984720349">
        <ele>379</ele>
        <time>2006-06-17T13:59:49Z</time>
      </trkpt>
      <trkpt lat="43.116949964314699" lon="11.634619971737266">
        <ele>374</ele>
        <time>2006-06-17T14:00:05Z</time>
      </trkpt>
      <trkpt lat="43.118919963017106" lon="11.635969961062074">
        <ele>366</ele>
        <time>2006-06-17T14:00:27Z</time>
      </trkpt>
      <trkpt lat="43.12111996114254" lon="11.638370035216212">
        <ele>367</ele>
        <time>2006-06-17T14:00:49Z</time>
      </trkpt>
      <trkpt lat="43.121230015531182" lon="11.640550000593066">
        <ele>367</ele>
        <time>2006-06-17T14:01:04Z</time>
      </trkpt>
      <trkpt lat="43.120270036160946" lon="11.64272996596992">
        <ele>367</ele>
        <time>2006-06-17T14:01:21Z</time>
      </trkpt>
      <trkpt lat="43.119750022888184" lon="11.646269978955388">
        <ele>382</ele>
        <time>2006-06-17T14:01:41Z</time>
      </trkpt>
      <trkpt lat="43.120979983359575" lon="11.647500023245811">
        <ele>388</ele>
        <time>2006-06-17T14:01:58Z</time>
      </trkpt>
      <trkpt lat="43.119999971240759" lon="11.651349999010563">
        <ele>392</ele>
        <time>2006-06-17T14:02:23Z</time>
      </trkpt>
      <trkpt lat="43.120949976146221" lon="11.653930032625794">
        <ele>420</ele>
        <time>2006-06-17T14:02:42Z</time>
      </trkpt>
      <trkpt lat="43.120570024475455" lon="11.65559995919466">
        <ele>421</ele>
        <time>2006-06-17T14:02:54Z</time>
      </trkpt>
      <trkpt lat="43.121130019426346" lon="11.656999988481402">
        <ele>413</ele>
        <time>2006-06-17T14:04:25Z</time>
      </trkpt>
      <trkpt lat="43.115350026637316" lon="11.659750007092953">
        <ele>395</ele>
        <time>2006-06-17T14:05:40Z</time>
      </trkpt>
      <trkpt lat="43.111180029809475" lon="11.659320015460253">
        <ele>389</ele>
        <time>2006-06-17T14:06:03Z</time>
      </trkpt>
      <trkpt lat="43.108969973400235" lon="11.660029962658882">
        <ele>384</ele>
        <time>2006-06-17T14:06:18Z</time>
      </trkpt>
      <trkpt lat="43.106000013649464" lon="11.659799963235855">
        <ele>373</ele>
        <time>2006-06-17T14:06:36Z</time>
      </trkpt>
      <trkpt lat="43.10377998277545" lon="11.660530027002096">
        <ele>342</ele>
        <time>2006-06-17T14:06:53Z</time>
      </trkpt>
      <trkpt lat="43.100020028650761" lon="11.660920036956668">
        <ele>357</ele>
        <time>2006-06-17T14:07:16Z</time>
      </trkpt>
      <trkpt lat="43.09542004019022" lon="11.660619964823127">
        <ele>375</ele>
        <time>2006-06-17T14:07:44Z</time>
      </trkpt>
      <trkpt lat="43.090649982914329" lon="11.661000000312924">
        <ele>413</ele>
        <time>2006-06-17T14:08:10Z</time>
      </trkpt>
      <trkpt lat="43.088400028645992" lon="11.661880016326904">
        <ele>433</ele>
        <time>2006-06-17T14:08:25Z</time>
      </trkpt>
      <trkpt lat="43.085949998348951" lon="11.664029974490404">
        <ele>448</ele>
        <time>2006-06-17T14:08:44Z</time>
      </trkpt>
      <trkpt lat="43.084449972957373" lon="11.666029980406165">
        <ele>458</ele>
        <time>2006-06-17T14:09:11Z</time>
      </trkpt>
      <trkpt lat="43.082899991422892" lon="11.670329980552197">
        <ele>470</ele>
        <time>2006-06-17T14:09:33Z</time>
      </trkpt>
      <trkpt lat="43.080829996615648" lon="11.671920027583838">
        <ele>473</ele>
        <time>2006-06-17T14:09:50Z</time>
      </trkpt>
      <trkpt lat="43.077849978581071" lon="11.676729982718825">
        <ele>479</ele>
        <time>2006-06-17T14:10:28Z</time>
      </trkpt>
      <trkpt lat="43.078269995748997" lon="11.677900012582541">
        <ele>485</ele>
        <time>2006-06-17T14:13:27Z</time>
      </trkpt>
      <trkpt lat="43.080980032682419" lon="11.676299991086125">
        <ele>483</ele>
        <time>2006-06-17T14:13:52Z</time>
      </trkpt>
      <trkpt lat="43.084749961271882" lon="11.676699975505471">
        <ele>471</ele>
        <time>2006-06-17T14:14:15Z</time>
      </trkpt>
      <trkpt lat="43.087420016527176" lon="11.67961997911334">
        <ele>471</ele>
        <time>2006-06-17T14:14:37Z</time>
      </trkpt>
      <trkpt lat="43.088649976998568" lon="11.683770027011633">
        <ele>459</ele>
        <time>2006-06-17T14:14:55Z</time>
      </trkpt>
      <trkpt lat="43.091750023886561" lon="11.686850041151047">
        <ele>431</ele>
        <time>2006-06-17T14:15:16Z</time>
      </trkpt>
      <trkpt lat="43.095030030235648" lon="11.689299987629056">
        <ele>442</ele>
        <time>2006-06-17T14:15:42Z</time>
      </trkpt>
      <trkpt lat="43.096480015665293" lon="11.690879976376891">
        <ele>444</ele>
        <time>2006-06-17T14:15:57Z</time>
      </trkpt>
      <trkpt lat="43.096700040623546" lon="11.69291996397078">
        <ele>449</ele>
        <time>2006-06-17T14:16:11Z</time>
      </trkpt>
      <trkpt lat="43.099720040336251" lon="11.696280017495155">
        <ele>447</ele>
        <time>2006-06-17T14:16:32Z</time>
      </trkpt>
      <trkpt lat="43.102869959548116" lon="11.69917001388967">
        <ele>457</ele>
        <time>2006-06-17T14:16:53Z</time>
      </trkpt>
      <trkpt lat="43.104100003838539" lon="11.70206998474896">
        <ele>469</ele>
        <time>2006-06-17T14:17:07Z</time>
      </trkpt>
      <trkpt lat="43.103449987247586" lon="11.704230001196265">
        <ele>476</ele>
        <time>2006-06-17T14:17:22Z</time>
      </trkpt>
      <trkpt lat="43.105500033125281" lon="11.706469980999827">
        <ele>498</ele>
        <time>2006-06-17T14:18:21Z</time>
      </trkpt>
      <trkpt lat="43.106850022450089" lon="11.708130016922951">
        <ele>499</ele>
        <time>2006-06-17T14:18:34Z</time>
      </trkpt>
      <trkpt lat="43.105419985949993" lon="11.713080033659935">
        <ele>507</ele>
        <time>2006-06-17T14:18:59Z</time>
      </trkpt>
      <trkpt lat="43.105370029807091" lon="11.716029960662127">
        <ele>509</ele>
        <time>2006-06-17T14:19:13Z</time>
      </trkpt>
      <trkpt lat="43.108449960127473" lon="11.720749977976084">
        <ele>506</ele>
        <time>2006-06-17T14:19:42Z</time>
      </trkpt>
      <trkpt lat="43.110319962725043" lon="11.72389998100698">
        <ele>490</ele>
        <time>2006-06-17T14:20:02Z</time>
      </trkpt>
      <trkpt lat="43.113120021298528" lon="11.722870012745261">
        <ele>470</ele>
        <time>2006-06-17T14:20:24Z</time>
      </trkpt>
      <trkpt lat="43.117480035871267" lon="11.723829992115498">
        <ele>467</ele>
        <time>2006-06-17T14:20:47Z</time>
      </trkpt>
      <trkpt lat="43.123500002548099" lon="11.72405001707375">
        <ele>481</ele>
        <time>2006-06-17T14:21:18Z</time>
      </trkpt>
      <trkpt lat="43.127500014379621" lon="11.726329978555441">
        <ele>505</ele>
        <time>2006-06-17T14:21:42Z</time>
      </trkpt>
      <trkpt lat="43.128949999809265" lon="11.728029996156693">
        <ele>513</ele>
        <time>2006-06-17T14:22:00Z</time>
      </trkpt>
      <trkpt lat="43.12964997254312" lon="11.728029996156693">
        <ele>509</ele>
        <time>2006-06-17T14:30:10Z</time>
      </trkpt>
      <trkpt lat="43.13272001221776" lon="11.72967997379601">
        <ele>507</ele>
        <time>2006-06-17T14:30:39Z</time>
      </trkpt>
      <trkpt lat="43.13590002246201" lon="11.730320015922189">
        <ele>504</ele>
        <time>2006-06-17T14:31:01Z</time>
      </trkpt>
      <trkpt lat="43.13892999663949" lon="11.733119990676641">
        <ele>532</ele>
        <time>2006-06-17T14:31:25Z</time>
      </trkpt>
      <trkpt lat="43.140149982646108" lon="11.736799981445074">
        <ele>518</ele>
        <time>2006-06-17T14:31:46Z</time>
      </trkpt>
      <trkpt lat="43.143880013376474" lon="11.73505000770092">
        <ele>496</ele>
        <time>2006-06-17T14:32:13Z</time>
      </trkpt>
      <trkpt lat="43.144949963316321" lon="11.737480005249381">
        <ele>488</ele>
        <time>2006-06-17T14:32:29Z</time>
      </trkpt>
      <trkpt lat="43.146819965913892" lon="11.738630002364516">
        <ele>461</ele>
        <time>2006-06-17T14:32:47Z</time>
      </trkpt>
      <trkpt lat="43.145599979907274" lon="11.739649996161461">
        <ele>456</ele>
        <time>2006-06-17T14:33:24Z</time>
      </trkpt>
      <trkpt lat="43.148020002990961" lon="11.740049980580807">
        <ele>418</ele>
        <time>2006-06-17T14:33:46Z</time>
      </trkpt>
      <trkpt lat="43.150519989430904" lon="11.740530012175441">
        <ele>402</ele>
        <time>2006-06-17T14:34:03Z</time>
      </trkpt>
      <trkpt lat="43.153730006888509" lon="11.741220010444522">
        <ele>387</ele>
        <time>2006-06-17T14:34:31Z</time>
      </trkpt>
      <trkpt lat="43.154020020738244" lon="11.744730016216636">
        <ele>370</ele>
        <time>2006-06-17T14:34:50Z</time>
      </trkpt>
      <trkpt lat="43.155019981786609" lon="11.748919961974025">
        <ele>374</ele>
        <time>2006-06-17T14:35:08Z</time>
      </trkpt>
      <trkpt lat="43.156599970534444" lon="11.7518500238657">
        <ele>367</ele>
        <time>2006-06-17T14:35:23Z</time>
      </trkpt>
      <trkpt lat="43.158899964764714" lon="11.754849990829825">
        <ele>354</ele>
        <time>2006-06-17T14:35:43Z</time>
      </trkpt>
      <trkpt lat="43.162130014970899" lon="11.756570041179657">
        <ele>352</ele>
        <time>2006-06-17T14:36:03Z</time>
      </trkpt>
      <trkpt lat="43.16252002492547" lon="11.759400023147464">
        <ele>345</ele>
        <time>2006-06-17T14:36:19Z</time>
      </trkpt>
      <trkpt lat="43.161349995061755" lon="11.762169990688562">
        <ele>338</ele>
        <time>2006-06-17T14:36:34Z</time>
      </trkpt>
      <trkpt lat="43.162569981068373" lon="11.766320038586855">
        <ele>327</ele>
        <time>2006-06-17T14:36:55Z</time>
      </trkpt>
      <trkpt lat="43.164579961448908" lon="11.770000029355288">
        <ele>306</ele>
        <time>2006-06-17T14:37:21Z</time>
      </trkpt>
      <trkpt lat="43.165800031274557" lon="11.772330030798912">
        <ele>299</ele>
        <time>2006-06-17T14:38:52Z</time>
      </trkpt>
      <trkpt lat="43.163749985396862" lon="11.771719995886087">
        <ele>297</ele>
        <time>2006-06-17T14:39:14Z</time>
      </trkpt>
      <trkpt lat="43.161970004439354" lon="11.77095003426075">
        <ele>285</ele>
        <time>2006-06-17T14:39:30Z</time>
      </trkpt>
      <trkpt lat="43.159879976883531" lon="11.773450020700693">
        <ele>281</ele>
        <time>2006-06-17T14:39:51Z</time>
      </trkpt>
      <trkpt lat="43.154699960723519" lon="11.776719968765974">
        <ele>341</ele>
        <time>2006-06-17T14:40:21Z</time>
      </trkpt>
      <trkpt lat="43.153620036318898" lon="11.776970000937581">
        <ele>355</ele>
        <time>2006-06-17T14:40:43Z</time>
      </trkpt>
      <trkpt lat="43.151130024343729" lon="11.778370030224323">
        <ele>362</ele>
        <time>2006-06-17T14:41:05Z</time>
      </trkpt>
      <trkpt lat="43.151019969955087" lon="11.782269962131977">
        <ele>345</ele>
        <time>2006-06-17T14:41:23Z</time>
      </trkpt>
      <trkpt lat="43.147920006886125" lon="11.783019974827766">
        <ele>356</ele>
        <time>2006-06-17T14:41:43Z</time>
      </trkpt>
      <trkpt lat="43.144979970529675" lon="11.787179997190833">
        <ele>351</ele>
        <time>2006-06-17T14:42:07Z</time>
      </trkpt>
      <trkpt lat="43.138549961149693" lon="11.794729996472597">
        <ele>339</ele>
        <time>2006-06-17T14:42:54Z</time>
      </trkpt>
      <trkpt lat="43.13590002246201" lon="11.793129974976182">
        <ele>320</ele>
        <time>2006-06-17T14:43:16Z</time>
      </trkpt>
      <trkpt lat="43.133730031549931" lon="11.794780036434531">
        <ele>307</ele>
        <time>2006-06-17T14:43:31Z</time>
      </trkpt>
      <trkpt lat="43.128850003704429" lon="11.793970009312034">
        <ele>291</ele>
        <time>2006-06-17T14:43:58Z</time>
      </trkpt>
      <trkpt lat="43.127049989998341" lon="11.794669982045889">
        <ele>293</ele>
        <time>2006-06-17T14:44:14Z</time>
      </trkpt>
      <trkpt lat="43.127930006012321" lon="11.801480026915669">
        <ele>266</ele>
        <time>2006-06-17T14:45:19Z</time>
      </trkpt>
      <trkpt lat="43.127319971099496" lon="11.805169992148876">
        <ele>265</ele>
        <time>2006-06-17T14:45:37Z</time>
      </trkpt>
      <trkpt lat="43.127100029960275" lon="11.812369963154197">
        <ele>311</ele>
        <time>2006-06-17T14:46:06Z</time>
      </trkpt>
      <trkpt lat="43.129479987546802" lon="11.818899968639016">
        <ele>314</ele>
        <time>2006-06-17T14:46:40Z</time>
      </trkpt>
      <trkpt lat="43.130050040781498" lon="11.823800029233098">
        <ele>311</ele>
        <time>2006-06-17T14:47:05Z</time>
      </trkpt>
      <trkpt lat="43.131530033424497" lon="11.826530015096068">
        <ele>295</ele>
        <time>2006-06-17T14:47:30Z</time>
      </trkpt>
      <trkpt lat="43.132250038906932" lon="11.829620003700256">
        <ele>293</ele>
        <time>2006-06-17T14:47:51Z</time>
      </trkpt>
      <trkpt lat="43.13312997110188" lon="11.835569981485605">
        <ele>293</ele>
        <time>2006-06-17T14:48:23Z</time>
      </trkpt>
      <trkpt lat="43.134070001542568" lon="11.840800037607551">
        <ele>312</ele>
        <time>2006-06-17T14:48:47Z</time>
      </trkpt>
      <trkpt lat="43.136579962447286" lon="11.84597996994853">
        <ele>298</ele>
        <time>2006-06-17T14:49:14Z</time>
      </trkpt>
      <trkpt lat="43.136620027944446" lon="11.849549990147352">
        <ele>297</ele>
        <time>2006-06-17T14:49:31Z</time>
      </trkpt>
      <trkpt lat="43.136799987405539" lon="11.851080022752285">
        <ele>294</ele>
        <time>2006-06-17T14:49:44Z</time>
      </trkpt>
      <trkpt lat="43.138019973412156" lon="11.857620002701879">
        <ele>232</ele>
        <time>2006-06-17T14:53:59Z</time>
      </trkpt>
      <trkpt lat="43.138079987838864" lon="11.861030012369156">
        <ele>248</ele>
        <time>2006-06-17T14:54:17Z</time>
      </trkpt>
      <trkpt lat="43.141050031408668" lon="11.865469990298152">
        <ele>238</ele>
        <time>2006-06-17T14:54:43Z</time>
      </trkpt>
      <trkpt lat="43.142579980194569" lon="11.869400013238192">
        <ele>241</ele>
        <time>2006-06-17T14:55:02Z</time>
      </trkpt>
      <trkpt lat="43.14112002030015" lon="11.883550006896257">
        <ele>253</ele>
        <time>2006-06-17T14:55:52Z</time>
      </trkpt>
      <trkpt lat="43.143629981204867" lon="11.893829992040992">
        <ele>253</ele>
        <time>2006-06-17T14:56:35Z</time>
      </trkpt>
      <trkpt lat="43.145469976589084" lon="11.897319965064526">
        <ele>225</ele>
        <time>2006-06-17T14:58:11Z</time>
      </trkpt>
      <trkpt lat="43.147769970819354" lon="11.897969981655478">
        <ele>239</ele>
        <time>2006-06-17T14:58:27Z</time>
      </trkpt>
      <trkpt lat="43.146670013666153" lon="11.899370010942221">
        <ele>288</ele>
        <time>2006-06-17T14:58:44Z</time>
      </trkpt>
      <trkpt lat="43.149100011214614" lon="11.904220031574368">
        <ele>284</ele>
        <time>2006-06-17T14:59:22Z</time>
      </trkpt>
      <trkpt lat="43.151969974860549" lon="11.906699985265732">
        <ele>273</ele>
        <time>2006-06-17T14:59:41Z</time>
      </trkpt>
      <trkpt lat="43.153730006888509" lon="11.909800032153726">
        <ele>247</ele>
        <time>2006-06-17T14:59:56Z</time>
      </trkpt>
      <trkpt lat="43.155030040070415" lon="11.914979964494705">
        <ele>260</ele>
        <time>2006-06-17T15:00:21Z</time>
      </trkpt>
      <trkpt lat="43.156099990010262" lon="11.918930020183325">
        <ele>258</ele>
        <time>2006-06-17T15:00:43Z</time>
      </trkpt>
      <trkpt lat="43.157949959859252" lon="11.92227004095912">
        <ele>255</ele>
        <time>2006-06-17T15:01:04Z</time>
      </trkpt>
      <trkpt lat="43.159470017999411" lon="11.925079990178347">
        <ele>258</ele>
        <time>2006-06-17T15:01:22Z</time>
      </trkpt>
      <trkpt lat="43.157570008188486" lon="11.926880003884435">
        <ele>292</ele>
        <time>2006-06-17T15:01:49Z</time>
      </trkpt>
      <trkpt lat="43.15835002809763" lon="11.931930016726255">
        <ele>310</ele>
        <time>2006-06-17T15:02:17Z</time>
      </trkpt>
      <trkpt lat="43.155379984527826" lon="11.93557002581656">
        <ele>327</ele>
        <time>2006-06-17T15:02:41Z</time>
      </trkpt>
      <trkpt lat="43.153170011937618" lon="11.939350012689829">
        <ele>321</ele>
        <time>2006-06-17T15:03:11Z</time>
      </trkpt>
      <trkpt lat="43.152069970965385" lon="11.939719989895821">
        <ele>359</ele>
        <time>2006-06-17T15:03:26Z</time>
      </trkpt>
      <trkpt lat="43.151200013235211" lon="11.941169975325465">
        <ele>359</ele>
        <time>2006-06-17T15:03:41Z</time>
      </trkpt>
      <trkpt lat="43.154880004003644" lon="11.956580020487309">
        <ele>291</ele>
        <time>2006-06-17T15:04:52Z</time>
      </trkpt>
      <trkpt lat="43.155850041657686" lon="11.960069993510842">
        <ele>293</ele>
        <time>2006-06-17T15:05:08Z</time>
      </trkpt>
      <trkpt lat="43.156099990010262" lon="11.965120006352663">
        <ele>282</ele>
        <time>2006-06-17T15:05:30Z</time>
      </trkpt>
      <trkpt lat="43.157949959859252" lon="11.969199981540442">
        <ele>264</ele>
        <time>2006-06-17T15:05:51Z</time>
      </trkpt>
      <trkpt lat="43.155330028384924" lon="11.971529982984066">
        <ele>273</ele>
        <time>2006-06-17T15:06:13Z</time>
      </trkpt>
      <trkpt lat="43.155079996213317" lon="11.975520020350814">
        <ele>267</ele>
        <time>2006-06-17T15:06:30Z</time>
      </trkpt>
      <trkpt lat="43.153620036318898" lon="11.980150016024709">
        <ele>258</ele>
        <time>2006-06-17T15:06:53Z</time>
      </trkpt>
      <trkpt lat="43.155270013958216" lon="11.981569994240999">
        <ele>251</ele>
        <time>2006-06-17T15:07:39Z</time>
      </trkpt>
      <trkpt lat="43.155600009486079" lon="11.985999997705221">
        <ele>250</ele>
        <time>2006-06-17T15:08:06Z</time>
      </trkpt>
      <trkpt lat="43.175720013678074" lon="11.984970029443502">
        <ele>228</ele>
        <time>2006-06-17T15:09:59Z</time>
      </trkpt>
      <trkpt lat="43.177769975736737" lon="11.986120026558638">
        <ele>229</ele>
        <time>2006-06-17T15:10:24Z</time>
      </trkpt>
      <trkpt lat="43.175030015408993" lon="11.991199962794781">
        <ele>224</ele>
        <time>2006-06-17T15:10:56Z</time>
      </trkpt>
      <trkpt lat="43.173220027238131" lon="12.003599982708693">
        <ele>223</ele>
        <time>2006-06-17T15:11:43Z</time>
      </trkpt>
      <trkpt lat="43.172019990161061" lon="12.006570026278496">
        <ele>226</ele>
        <time>2006-06-17T15:11:56Z</time>
      </trkpt>
      <trkpt lat="43.174180006608367" lon="12.012269971892238">
        <ele>220</ele>
        <time>2006-06-17T15:12:30Z</time>
      </trkpt>
      <trkpt lat="43.173729982227087" lon="12.013679975643754">
        <ele>218</ele>
        <time>2006-06-17T15:12:45Z</time>
      </trkpt>
      <trkpt lat="43.180429972708225" lon="12.013449976220727">
        <ele>212</ele>
        <time>2006-06-17T15:13:22Z</time>
      </trkpt>
      <trkpt lat="43.182250019162893" lon="12.01712996698916">
        <ele>207</ele>
        <time>2006-06-17T15:13:48Z</time>
      </trkpt>
      <trkpt lat="43.185130041092634" lon="12.019749982282519">
        <ele>204</ele>
        <time>2006-06-17T15:14:07Z</time>
      </trkpt>
      <trkpt lat="43.186229998245835" lon="12.023299969732761">
        <ele>201</ele>
        <time>2006-06-17T15:14:33Z</time>
      </trkpt>
      <trkpt lat="43.184399977326393" lon="12.024100022390485">
        <ele>200</ele>
        <time>2006-06-17T15:15:18Z</time>
      </trkpt>
      <trkpt lat="43.183730011805892" lon="12.023600041866302">
        <ele>216</ele>
        <time>2006-06-17T15:15:40Z</time>
      </trkpt>
      <trkpt lat="43.183479979634285" lon="12.023780001327395">
        <ele>245</ele>
        <time>2006-06-17T15:16:01Z</time>
      </trkpt>
      <trkpt lat="43.183800000697374" lon="12.023900030180812">
        <ele>260</ele>
        <time>2006-06-17T15:26:11Z</time>
      </trkpt>
      <trkpt lat="43.186250030994415" lon="12.023780001327395">
        <ele>263</ele>
        <time>2006-06-17T15:26:56Z</time>
      </trkpt>
      <trkpt lat="43.186970036476851" lon="12.025900036096573">
        <ele>261</ele>
        <time>2006-06-17T15:27:26Z</time>
      </trkpt>
      <trkpt lat="43.185999998822808" lon="12.03595002181828">
        <ele>265</ele>
        <time>2006-06-17T15:28:17Z</time>
      </trkpt>
      <trkpt lat="43.18737999536097" lon="12.037170007824898">
        <ele>279</ele>
        <time>2006-06-17T15:28:51Z</time>
      </trkpt>
      <trkpt lat="43.189730029553175" lon="12.039400013163686">
        <ele>306</ele>
        <time>2006-06-17T15:29:15Z</time>
      </trkpt>
      <trkpt lat="43.190920008346438" lon="12.04390000551939">
        <ele>306</ele>
        <time>2006-06-17T15:29:49Z</time>
      </trkpt>
      <trkpt lat="43.191649988293648" lon="12.048620022833347">
        <ele>308</ele>
        <time>2006-06-17T15:30:15Z</time>
      </trkpt>
      <trkpt lat="43.197429981082678" lon="12.050820020958781">
        <ele>314</ele>
        <time>2006-06-17T15:30:57Z</time>
      </trkpt>
      <trkpt lat="43.199620004743338" lon="12.052349969744682">
        <ele>297</ele>
        <time>2006-06-17T15:31:17Z</time>
      </trkpt>
      <trkpt lat="43.199750008061528" lon="12.05810003913939">
        <ele>281</ele>
        <time>2006-06-17T15:31:42Z</time>
      </trkpt>
      <trkpt lat="43.20145002566278" lon="12.065130025148392">
        <ele>275</ele>
        <time>2006-06-17T15:32:12Z</time>
      </trkpt>
      <trkpt lat="43.20241997949779" lon="12.069920031353831">
        <ele>280</ele>
        <time>2006-06-17T15:32:34Z</time>
      </trkpt>
      <trkpt lat="43.203149959445" lon="12.073879977688193">
        <ele>278</ele>
        <time>2006-06-17T15:32:56Z</time>
      </trkpt>
      <trkpt lat="43.202619971707463" lon="12.077129976823926">
        <ele>277</ele>
        <time>2006-06-17T15:33:13Z</time>
      </trkpt>
      <trkpt lat="43.203250039368868" lon="12.081900034099817">
        <ele>273</ele>
        <time>2006-06-17T15:33:37Z</time>
      </trkpt>
      <trkpt lat="43.203030014410615" lon="12.089669974520802">
        <ele>270</ele>
        <time>2006-06-17T15:34:11Z</time>
      </trkpt>
      <trkpt lat="43.201850010082126" lon="12.093249969184399">
        <ele>274</ele>
        <time>2006-06-17T15:34:25Z</time>
      </trkpt>
      <trkpt lat="43.200470013543963" lon="12.09802002646029">
        <ele>272</ele>
        <time>2006-06-17T15:34:46Z</time>
      </trkpt>
      <trkpt lat="43.200270021334291" lon="12.101430036127567">
        <ele>268</ele>
        <time>2006-06-17T15:35:05Z</time>
      </trkpt>
      <trkpt lat="43.198720039799809" lon="12.106620026752353">
        <ele>267</ele>
        <time>2006-06-17T15:35:33Z</time>
      </trkpt>
      <trkpt lat="43.194249970838428" lon="12.110449969768524">
        <ele>267</ele>
        <time>2006-06-17T15:36:08Z</time>
      </trkpt>
      <trkpt lat="43.192550037056208" lon="12.120050014927983">
        <ele>266</ele>
        <time>2006-06-17T15:36:49Z</time>
      </trkpt>
      <trkpt lat="43.192269997671247" lon="12.12852998636663">
        <ele>271</ele>
        <time>2006-06-17T15:37:33Z</time>
      </trkpt>
      <trkpt lat="43.19088002666831" lon="12.131080012768507">
        <ele>271</ele>
        <time>2006-06-17T15:37:53Z</time>
      </trkpt>
      <trkpt lat="43.190220035612583" lon="12.13272001594305">
        <ele>273</ele>
        <time>2006-06-17T15:38:05Z</time>
      </trkpt>
      <trkpt lat="43.191779991611838" lon="12.134630000218749">
        <ele>291</ele>
        <time>2006-06-17T15:38:38Z</time>
      </trkpt>
      <trkpt lat="43.194400006905198" lon="12.137069972231984">
        <ele>337</ele>
        <time>2006-06-17T15:39:09Z</time>
      </trkpt>
      <trkpt lat="43.195580011233687" lon="12.138300016522408">
        <ele>355</ele>
        <time>2006-06-17T15:39:28Z</time>
      </trkpt>
      <trkpt lat="43.197129992768168" lon="12.136999983340502">
        <ele>362</ele>
        <time>2006-06-17T15:39:52Z</time>
      </trkpt>
      <trkpt lat="43.197719994932413" lon="12.135429969057441">
        <ele>370</ele>
        <time>2006-06-17T15:40:10Z</time>
      </trkpt>
      <trkpt lat="43.198019983246922" lon="12.138600004836917">
        <ele>394</ele>
        <time>2006-06-17T15:40:34Z</time>
      </trkpt>
      <trkpt lat="43.199169980362058" lon="12.141750007867813">
        <ele>442</ele>
        <time>2006-06-17T15:40:53Z</time>
      </trkpt>
      <trkpt lat="43.201729981228709" lon="12.143450025469065">
        <ele>470</ele>
        <time>2006-06-17T15:41:17Z</time>
      </trkpt>
      <trkpt lat="43.204119997099042" lon="12.144949967041612">
        <ele>498</ele>
        <time>2006-06-17T15:41:44Z</time>
      </trkpt>
      <trkpt lat="43.204549988731742" lon="12.145580034703016">
        <ele>507</ele>
        <time>2006-06-17T15:42:03Z</time>
      </trkpt>
      <trkpt lat="43.205149965360761" lon="12.145299995318055">
        <ele>515</ele>
        <time>2006-06-17T15:44:20Z</time>
      </trkpt>
      <trkpt lat="43.204370029270649" lon="12.145529994741082">
        <ele>514</ele>
        <time>2006-06-17T15:44:43Z</time>
      </trkpt>
      <trkpt lat="43.203429998829961" lon="12.147049969062209">
        <ele>525</ele>
        <time>2006-06-17T15:45:15Z</time>
      </trkpt>
      <trkpt lat="43.201769962906837" lon="12.149179978296161">
        <ele>545</ele>
        <time>2006-06-17T15:45:38Z</time>
      </trkpt>
      <trkpt lat="43.200900005176663" lon="12.15222998522222">
        <ele>563</ele>
        <time>2006-06-17T15:46:00Z</time>
      </trkpt>
      <trkpt lat="43.201179960742593" lon="12.154429983347654">
        <ele>569</ele>
        <time>2006-06-17T15:46:15Z</time>
      </trkpt>
      <trkpt lat="43.202219987288117" lon="12.156069986522198">
        <ele>559</ele>
        <time>2006-06-17T15:46:32Z</time>
      </trkpt>
      <trkpt lat="43.202830022200942" lon="12.158769965171814">
        <ele>535</ele>
        <time>2006-06-17T15:47:05Z</time>
      </trkpt>
      <trkpt lat="43.20158002898097" lon="12.161349998787045">
        <ele>540</ele>
        <time>2006-06-17T15:47:37Z</time>
      </trkpt>
      <trkpt lat="43.200300028547645" lon="12.163020009174943">
        <ele>553</ele>
        <time>2006-06-17T15:47:54Z</time>
      </trkpt>
      <trkpt lat="43.200400024652481" lon="12.165580010041595">
        <ele>564</ele>
        <time>2006-06-17T15:48:11Z</time>
      </trkpt>
      <trkpt lat="43.201099997386336" lon="12.169329989701509">
        <ele>565</ele>
        <time>2006-06-17T15:48:37Z</time>
      </trkpt>
      <trkpt lat="43.202579990029335" lon="12.171850008890033">
        <ele>571</ele>
        <time>2006-06-17T15:48:59Z</time>
      </trkpt>
      <trkpt lat="43.2005700096488" lon="12.173569975420833">
        <ele>571</ele>
        <time>2006-06-17T15:49:28Z</time>
      </trkpt>
      <trkpt lat="43.199369972571731" lon="12.175179971382022">
        <ele>552</ele>
        <time>2006-06-17T15:49:47Z</time>
      </trkpt>
      <trkpt lat="43.19824998266995" lon="12.179500004276633">
        <ele>522</ele>
        <time>2006-06-17T15:50:20Z</time>
      </trkpt>
      <trkpt lat="43.197469962760806" lon="12.182970028370619">
        <ele>509</ele>
        <time>2006-06-17T15:50:48Z</time>
      </trkpt>
      <trkpt lat="43.196049984544516" lon="12.184129999950528">
        <ele>522</ele>
        <time>2006-06-17T15:51:06Z</time>
      </trkpt>
      <trkpt lat="43.196249976754189" lon="12.186850011348724">
        <ele>546</ele>
        <time>2006-06-17T15:51:26Z</time>
      </trkpt>
      <trkpt lat="43.194549959152937" lon="12.189800022169948">
        <ele>556</ele>
        <time>2006-06-17T15:51:48Z</time>
      </trkpt>
      <trkpt lat="43.19257996045053" lon="12.191549995914102">
        <ele>548</ele>
        <time>2006-06-17T15:52:10Z</time>
      </trkpt>
      <trkpt lat="43.193619986996055" lon="12.196570001542568">
        <ele>550</ele>
        <time>2006-06-17T15:52:56Z</time>
      </trkpt>
      <trkpt lat="43.194349966943264" lon="12.200170028954744">
        <ele>526</ele>
        <time>2006-06-17T15:53:26Z</time>
      </trkpt>
      <trkpt lat="43.193629961460829" lon="12.202930022031069">
        <ele>510</ele>
        <time>2006-06-17T15:53:49Z</time>
      </trkpt>
      <trkpt lat="43.195749996230006" lon="12.203850019723177">
        <ele>498</ele>
        <time>2006-06-17T15:54:11Z</time>
      </trkpt>
      <trkpt lat="43.197229988873005" lon="12.203669976443052">
        <ele>487</ele>
        <time>2006-06-17T15:54:28Z</time>
      </trkpt>
      <trkpt lat="43.199320016428828" lon="12.202579993754625">
        <ele>469</ele>
        <time>2006-06-17T15:54:46Z</time>
      </trkpt>
      <trkpt lat="43.200730020180345" lon="12.20271997153759">
        <ele>465</ele>
        <time>2006-06-17T15:54:58Z</time>
      </trkpt>
      <trkpt lat="43.200770001858473" lon="12.200819961726665">
        <ele>453</ele>
        <time>2006-06-17T15:55:18Z</time>
      </trkpt>
      <trkpt lat="43.199129998683929" lon="12.200370021164417">
        <ele>445</ele>
        <time>2006-06-17T15:55:36Z</time>
      </trkpt>
      <trkpt lat="43.203529994934797" lon="12.198349982500076">
        <ele>413</ele>
        <time>2006-06-17T15:56:07Z</time>
      </trkpt>
      <trkpt lat="43.206270039081573" lon="12.199369976297021">
        <ele>400</ele>
        <time>2006-06-17T15:56:25Z</time>
      </trkpt>
      <trkpt lat="43.207579962909222" lon="12.201049961149693">
        <ele>390</ele>
        <time>2006-06-17T15:56:39Z</time>
      </trkpt>
      <trkpt lat="43.207219960168004" lon="12.196579976007342">
        <ele>367</ele>
        <time>2006-06-17T15:57:11Z</time>
      </trkpt>
      <trkpt lat="43.210269967094064" lon="12.195970024913549">
        <ele>341</ele>
        <time>2006-06-17T15:57:45Z</time>
      </trkpt>
      <trkpt lat="43.213470010086894" lon="12.192950025200844">
        <ele>324</ele>
        <time>2006-06-17T15:58:17Z</time>
      </trkpt>
      <trkpt lat="43.218829985707998" lon="12.191449999809265">
        <ele>327</ele>
        <time>2006-06-17T16:02:22Z</time>
      </trkpt>
      <trkpt lat="43.221169961616397" lon="12.190220039337873">
        <ele>341</ele>
        <time>2006-06-17T16:02:37Z</time>
      </trkpt>
      <trkpt lat="43.224449967965484" lon="12.190269995480776">
        <ele>346</ele>
        <time>2006-06-17T16:02:57Z</time>
      </trkpt>
      <trkpt lat="43.229229999706149" lon="12.188620017841458">
        <ele>355</ele>
        <time>2006-06-17T16:03:31Z</time>
      </trkpt>
      <trkpt lat="43.230730025097728" lon="12.186520015820861">
        <ele>367</ele>
        <time>2006-06-17T16:03:44Z</time>
      </trkpt>
      <trkpt lat="43.233049968257546" lon="12.184469969943166">
        <ele>387</ele>
        <time>2006-06-17T16:04:05Z</time>
      </trkpt>
      <trkpt lat="43.236320000141859" lon="12.180169969797134">
        <ele>417</ele>
        <time>2006-06-17T16:04:37Z</time>
      </trkpt>
      <trkpt lat="43.236870020627975" lon="12.175920009613037">
        <ele>435</ele>
        <time>2006-06-17T16:05:03Z</time>
      </trkpt>
      <trkpt lat="43.23832000605762" lon="12.171569969505072">
        <ele>454</ele>
        <time>2006-06-17T16:05:32Z</time>
      </trkpt>
      <trkpt lat="43.238150021061301" lon="12.168519962579012">
        <ele>477</ele>
        <time>2006-06-17T16:05:53Z</time>
      </trkpt>
      <trkpt lat="43.240399975329638" lon="12.165949987247586">
        <ele>481</ele>
        <time>2006-06-17T16:06:23Z</time>
      </trkpt>
      <trkpt lat="43.243129961192608" lon="12.162680039182305">
        <ele>463</ele>
        <time>2006-06-17T16:06:46Z</time>
      </trkpt>
      <trkpt lat="43.244299991056323" lon="12.160000009462237">
        <ele>451</ele>
        <time>2006-06-17T16:07:07Z</time>
      </trkpt>
      <trkpt lat="43.241769997403026" lon="12.161099966615438">
        <ele>439</ele>
        <time>2006-06-17T16:07:30Z</time>
      </trkpt>
      <trkpt lat="43.240129994228482" lon="12.159329960122705">
        <ele>422</ele>
        <time>2006-06-17T16:07:54Z</time>
      </trkpt>
      <trkpt lat="43.240819992497563" lon="12.156780017539859">
        <ele>400</ele>
        <time>2006-06-17T16:08:23Z</time>
      </trkpt>
      <trkpt lat="43.24195004068315" lon="12.155219977721572">
        <ele>369</ele>
        <time>2006-06-17T16:08:49Z</time>
      </trkpt>
      <trkpt lat="43.241249984130263" lon="12.153630014508963">
        <ele>363</ele>
        <time>2006-06-17T16:09:02Z</time>
      </trkpt>
      <trkpt lat="43.242669962346554" lon="12.150629963725805">
        <ele>358</ele>
        <time>2006-06-17T16:09:23Z</time>
      </trkpt>
      <trkpt lat="43.24407996609807" lon="12.147300001233816">
        <ele>354</ele>
        <time>2006-06-17T16:09:42Z</time>
      </trkpt>
      <trkpt lat="43.246100004762411" lon="12.143130004405975">
        <ele>335</ele>
        <time>2006-06-17T16:10:15Z</time>
      </trkpt>
      <trkpt lat="43.24947003275156" lon="12.138869985938072">
        <ele>324</ele>
        <time>2006-06-17T16:11:08Z</time>
      </trkpt>
      <trkpt lat="43.255030000582337" lon="12.139429980888963">
        <ele>316</ele>
        <time>2006-06-17T16:12:39Z</time>
      </trkpt>
      <trkpt lat="43.255150029435754" lon="12.139929961413145">
        <ele>321</ele>
        <time>2006-06-17T16:13:46Z</time>
      </trkpt>
      <trkpt lat="43.255380028858781" lon="12.138249976560473">
        <ele>318</ele>
        <time>2006-06-17T16:14:07Z</time>
      </trkpt>
      <trkpt lat="43.256200030446053" lon="12.124229986220598">
        <ele>337</ele>
        <time>2006-06-17T16:15:25Z</time>
      </trkpt>
      <trkpt lat="43.255750006064773" lon="12.120429966598749">
        <ele>353</ele>
        <time>2006-06-17T16:15:46Z</time>
      </trkpt>
      <trkpt lat="43.254830008372664" lon="12.116579990833998">
        <ele>380</ele>
        <time>2006-06-17T16:16:05Z</time>
      </trkpt>
      <trkpt lat="43.25509998947382" lon="12.111369967460632">
        <ele>420</ele>
        <time>2006-06-17T16:16:27Z</time>
      </trkpt>
      <trkpt lat="43.255880009382963" lon="12.108750035986304">
        <ele>437</ele>
        <time>2006-06-17T16:16:41Z</time>
      </trkpt>
      <trkpt lat="43.253800040110946" lon="12.111169975250959">
        <ele>449</ele>
        <time>2006-06-17T16:33:15Z</time>
      </trkpt>
      <trkpt lat="43.251299969851971" lon="12.110779965296388">
        <ele>472</ele>
        <time>2006-06-17T16:33:34Z</time>
      </trkpt>
      <trkpt lat="43.248950019478798" lon="12.10867996327579">
        <ele>498</ele>
        <time>2006-06-17T16:33:56Z</time>
      </trkpt>
      <trkpt lat="43.247180012986064" lon="12.107649995014071">
        <ele>516</ele>
        <time>2006-06-17T16:34:13Z</time>
      </trkpt>
      <trkpt lat="43.245319984853268" lon="12.107180021703243">
        <ele>537</ele>
        <time>2006-06-17T16:34:33Z</time>
      </trkpt>
      <trkpt lat="43.244049958884716" lon="12.104079974815249">
        <ele>564</ele>
        <time>2006-06-17T16:34:51Z</time>
      </trkpt>
      <trkpt lat="43.244230002164841" lon="12.101449985057116">
        <ele>584</ele>
        <time>2006-06-17T16:35:05Z</time>
      </trkpt>
      <trkpt lat="43.244920000433922" lon="12.098929965868592">
        <ele>593</ele>
        <time>2006-06-17T16:35:21Z</time>
      </trkpt>
      <trkpt lat="43.246920006349683" lon="12.097019981592894">
        <ele>600</ele>
        <time>2006-06-17T16:35:39Z</time>
      </trkpt>
      <trkpt lat="43.24931999668479" lon="12.095319963991642">
        <ele>607</ele>
        <time>2006-06-17T16:36:03Z</time>
      </trkpt>
      <trkpt lat="43.24929996393621" lon="12.092570029199123">
        <ele>622</ele>
        <time>2006-06-17T16:36:20Z</time>
      </trkpt>
      <trkpt lat="43.247500034049153" lon="12.0921999681741">
        <ele>641</ele>
        <time>2006-06-17T16:36:34Z</time>
      </trkpt>
      <trkpt lat="43.248300002887845" lon="12.090419987216592">
        <ele>630</ele>
        <time>2006-06-17T16:36:54Z</time>
      </trkpt>
      <trkpt lat="43.249949980527163" lon="12.090400038287044">
        <ele>623</ele>
        <time>2006-06-17T16:37:16Z</time>
      </trkpt>
      <trkpt lat="43.247800022363663" lon="12.088170032948256">
        <ele>582</ele>
        <time>2006-06-17T16:37:39Z</time>
      </trkpt>
      <trkpt lat="43.251180024817586" lon="12.087250035256147">
        <ele>530</ele>
        <time>2006-06-17T16:38:21Z</time>
      </trkpt>
      <trkpt lat="43.251870023086667" lon="12.084070025011897">
        <ele>507</ele>
        <time>2006-06-17T16:38:40Z</time>
      </trkpt>
      <trkpt lat="43.252620035782456" lon="12.082170015200973">
        <ele>496</ele>
        <time>2006-06-17T16:38:52Z</time>
      </trkpt>
      <trkpt lat="43.254000032320619" lon="12.079919977113605">
        <ele>476</ele>
        <time>2006-06-17T16:39:10Z</time>
      </trkpt>
      <trkpt lat="43.254449972882867" lon="12.077719978988171">
        <ele>470</ele>
        <time>2006-06-17T16:39:24Z</time>
      </trkpt>
      <trkpt lat="43.254830008372664" lon="12.074330002069473">
        <ele>442</ele>
        <time>2006-06-17T16:39:44Z</time>
      </trkpt>
      <trkpt lat="43.25600003823638" lon="12.072620010003448">
        <ele>421</ele>
        <time>2006-06-17T16:40:00Z</time>
      </trkpt>
      <trkpt lat="43.2551200222224" lon="12.071449980139732">
        <ele>383</ele>
        <time>2006-06-17T16:40:43Z</time>
      </trkpt>
      <trkpt lat="43.253719992935658" lon="12.072869958356023">
        <ele>366</ele>
        <time>2006-06-17T16:40:57Z</time>
      </trkpt>
      <trkpt lat="43.25466999784112" lon="12.06923003308475">
        <ele>335</ele>
        <time>2006-06-17T16:41:27Z</time>
      </trkpt>
      <trkpt lat="43.254249980673194" lon="12.065530009567738">
        <ele>317</ele>
        <time>2006-06-17T16:41:50Z</time>
      </trkpt>
      <trkpt lat="43.254470005631447" lon="12.065780041739345">
        <ele>317</ele>
        <time>2006-06-17T16:47:50Z</time>
      </trkpt>
    </trkseg>
  </trk>
</gpx>
